Observation data for Endee on 08/20/2019      Previous  Date  Next       Current Mesonet Observations  Soil Data  Daily Summary Page  Observations in Plain Language
KEN1 200500Z 15017KT 31/09 A3009 RMK A01 T03110092  RH  026%=      5-min Rain = 0
KEN1 200501Z 15016KT 31/09 A3009 RMK A01 T03110092  RH  026%=      5-min Rain = 0
KEN1 200502Z 14013KT 31/09 A3009 RMK A01 T03110092  RH  026%=      5-min Rain = 0
KEN1 200503Z 15013KT 31/09 A3009 RMK A01 T03110093  RH  026%=      5-min Rain = 0
KEN1 200504Z 15011KT 31/09 A3009 RMK A01 T03100093  RH  026%=      5-min Rain = 0
KEN1 200505Z 15010KT 31/09 A3009 RMK A01 T03090093  RH  026%=      5-min Rain = 0
KEN1 200506Z 14012KT 31/09 A3009 RMK A01 T03090093  RH  026%=      5-min Rain = 0
KEN1 200507Z 14011KT 31/09 A3009 RMK A01 T03080094  RH  027%=      5-min Rain = 0
KEN1 200508Z 14012KT 31/09 A3009 RMK A01 T03070094  RH  027%=      5-min Rain = 0
KEN1 200509Z 13011KT 31/09 A3009 RMK A01 T03060094  RH  027%=      5-min Rain = 0
KEN1 200510Z 14012KT 31/09 A3009 RMK A01 T03050094  RH  027%=      5-min Rain = 0
KEN1 200511Z 14012KT 31/10 A3009 RMK A01 T03050095  RH  027%=      5-min Rain = 0
KEN1 200512Z 14013G18KT 31/10 A3009 RMK A01 T03050095  RH  027%=      5-min Rain = 0
KEN1 200513Z 14012KT 31/09 A3009 RMK A01 T03060094  RH  027%=      5-min Rain = 0
KEN1 200514Z 14011KT 31/10 A3009 RMK A01 T03060095  RH  027%=      5-min Rain = 0
KEN1 200515Z 14011KT 31/10 A3009 RMK A01 T03060096  RH  027%=      5-min Rain = 0
KEN1 200516Z 14012KT 31/10 A3009 RMK A01 T03050096  RH  027%=      5-min Rain = 0
KEN1 200517Z 14012KT 30/10 A3009 RMK A01 T03040096  RH  027%=      5-min Rain = 0
KEN1 200518Z 14012KT 30/10 A3009 RMK A01 T03040097  RH  028%=      5-min Rain = 0
KEN1 200519Z 14011KT 30/10 A3009 RMK A01 T03030097  RH  028%=      5-min Rain = 0
KEN1 200520Z 14013KT 30/10 A3009 RMK A01 T03030097  RH  028%=      5-min Rain = 0
KEN1 200521Z 13014KT 30/10 A3009 RMK A01 T03020097  RH  028%=      5-min Rain = 0
KEN1 200522Z 13015KT 30/10 A3009 RMK A01 T03020097  RH  028%=      5-min Rain = 0
KEN1 200523Z 13015KT 30/10 A3009 RMK A01 T03020097  RH  028%=      5-min Rain = 0
KEN1 200524Z 13013KT 30/10 A3009 RMK A01 T03030097  RH  028%=      5-min Rain = 0
KEN1 200525Z 13012KT 30/10 A3009 RMK A01 T03030097  RH  028%=      5-min Rain = 0
KEN1 200526Z 14012KT 30/10 A3009 RMK A01 T03030098  RH  028%=      5-min Rain = 0
KEN1 200527Z 14011KT 30/10 A3009 RMK A01 T03030098  RH  028%=      5-min Rain = 0
KEN1 200528Z 14011KT 30/10 A3009 RMK A01 T03020098  RH  028%=      5-min Rain = 0
KEN1 200529Z 13011KT 30/10 A3009 RMK A01 T03010098  RH  028%=      5-min Rain = 0
KEN1 200530Z 13011KT 30/10 A3009 RMK A01 T03000099  RH  029%=      5-min Rain = 0
KEN1 200531Z 13012KT 30/10 A3009 RMK A01 T03000099  RH  029%=      5-min Rain = 0
KEN1 200532Z 13012KT 30/10 A3009 RMK A01 T02990099  RH  029%=      5-min Rain = 0
KEN1 200533Z 13012KT 30/10 A3009 RMK A01 T02990098  RH  029%=      5-min Rain = 0
KEN1 200534Z 13011KT 30/10 A3009 RMK A01 T02990098  RH  029%=      5-min Rain = 0
KEN1 200535Z 13012KT 30/10 A3009 RMK A01 T02990098  RH  029%=      5-min Rain = 0
KEN1 200536Z 13013KT 30/10 A3009 RMK A01 T02990098  RH  029%=      5-min Rain = 0
KEN1 200537Z 14011KT 30/10 A3009 RMK A01 T02990098  RH  029%=      5-min Rain = 0
KEN1 200538Z 13012KT 30/10 A3009 RMK A01 T02980098  RH  029%=      5-min Rain = 0
KEN1 200539Z 13012KT 30/10 A3009 RMK A01 T02980098  RH  029%=      5-min Rain = 0
KEN1 200540Z 13010KT 30/10 A3009 RMK A01 T02970098  RH  029%=      5-min Rain = 0
KEN1 200541Z 13012KT 30/10 A3009 RMK A01 T02970098  RH  029%=      5-min Rain = 0
KEN1 200542Z 14012KT 30/10 A3009 RMK A01 T02970097  RH  029%=      5-min Rain = 0
KEN1 200543Z 13011KT 30/10 A3009 RMK A01 T02970098  RH  029%=      5-min Rain = 0
KEN1 200544Z 13012KT 30/10 A3009 RMK A01 T02960097  RH  029%=      5-min Rain = 0
KEN1 200545Z 13012KT 30/10 A3009 RMK A01 T02960097  RH  029%=      5-min Rain = 0
KEN1 200546Z 13012KT 30/10 A3009 RMK A01 T02960097  RH  029%=      5-min Rain = 0
KEN1 200547Z 13012KT 30/10 A3009 RMK A01 T02960096  RH  029%=      5-min Rain = 0
KEN1 200548Z 13011KT 30/10 A3009 RMK A01 T02970096  RH  029%=      5-min Rain = 0
KEN1 200549Z 14011KT 30/10 A3009 RMK A01 T02970096  RH  029%=      5-min Rain = 0
KEN1 200550Z 14010KT 30/10 A3009 RMK A01 T02980096  RH  029%=      5-min Rain = 0
KEN1 200551Z 14010KT 30/10 A3009 RMK A01 T02970096  RH  029%=      5-min Rain = 0
KEN1 200552Z 14010KT 30/10 A3009 RMK A01 T02960097  RH  029%=      5-min Rain = 0
KEN1 200553Z 15010KT 30/10 A3009 RMK A01 T02950096  RH  029%=      5-min Rain = 0
KEN1 200554Z 15010KT 29/10 A3009 RMK A01 T02940097  RH  029%=      5-min Rain = 0
KEN1 200555Z 15010KT 29/10 A3009 RMK A01 T02930096  RH  029%=      5-min Rain = 0
KEN1 200556Z 15010KT 29/10 A3009 RMK A01 T02920097  RH  030%=      5-min Rain = 0
KEN1 200557Z 15010KT 29/10 A3009 RMK A01 T02910096  RH  030%=      5-min Rain = 0
KEN1 200558Z 15009KT 29/10 A3009 RMK A01 T02910097  RH  030%=      5-min Rain = 0
KEN1 200559Z 15009KT 29/10 A3009 RMK A01 T02900097  RH  030%=      5-min Rain = 0
KEN1 200600Z 15009KT 29/10 A3009 RMK A01 T02890098  RH  030%=      5-min Rain = 0
KEN1 200601Z 15010KT 29/10 A3009 RMK A01 T02880098  RH  031%=      5-min Rain = 0
KEN1 200602Z 14010KT 29/10 A3009 RMK A01 T02870097  RH  031%=      5-min Rain = 0
KEN1 200603Z 14011KT 29/10 A3009 RMK A01 T02870097  RH  031%=      5-min Rain = 0
KEN1 200604Z 15010KT 29/10 A3009 RMK A01 T02880097  RH  030%=      5-min Rain = 0
KEN1 200605Z 15010KT 29/10 A3009 RMK A01 T02890097  RH  030%=      5-min Rain = 0
KEN1 200606Z 14010KT 29/10 A3009 RMK A01 T02890098  RH  030%=      5-min Rain = 0
KEN1 200607Z 15010KT 29/10 A3009 RMK A01 T02880097  RH  030%=      5-min Rain = 0
KEN1 200608Z 15010KT 29/10 A3009 RMK A01 T02880097  RH  030%=      5-min Rain = 0
KEN1 200609Z 15010KT 29/10 A3009 RMK A01 T02880098  RH  031%=      5-min Rain = 0
KEN1 200610Z 15010KT 29/10 A3009 RMK A01 T02870098  RH  031%=      5-min Rain = 0
KEN1 200611Z 15010KT 29/10 A3009 RMK A01 T02860098  RH  031%=      5-min Rain = 0
KEN1 200612Z 16010KT 29/10 A301 RMK A01 T02850099  RH  031%=      5-min Rain = 0
KEN1 200613Z 15009KT 28/10 A3009 RMK A01 T02840099  RH  031%=      5-min Rain = 0
KEN1 200614Z 15010KT 28/10 A3009 RMK A01 T02820099  RH  032%=      5-min Rain = 0
KEN1 200615Z 15009KT 28/10 A3009 RMK A01 T02820099  RH  032%=      5-min Rain = 0
KEN1 200616Z 15010KT 28/10 A3009 RMK A01 T02810099  RH  032%=      5-min Rain = 0
KEN1 200617Z 14009KT 28/10 A3009 RMK A01 T02800099  RH  032%=      5-min Rain = 0
KEN1 200618Z 14009KT 28/10 A3009 RMK A01 T02790099  RH  032%=      5-min Rain = 0
KEN1 200619Z 14009KT 28/10 A3009 RMK A01 T02790100  RH  033%=      5-min Rain = 0
KEN1 200620Z 14009KT 28/10 A3009 RMK A01 T02790100  RH  033%=      5-min Rain = 0
KEN1 200621Z 15009KT 28/10 A3009 RMK A01 T02790100  RH  033%=      5-min Rain = 0
KEN1 200622Z 15009KT 28/10 A3009 RMK A01 T02790100  RH  033%=      5-min Rain = 0
KEN1 200623Z 14010KT 28/10 A3009 RMK A01 T02780100  RH  033%=      5-min Rain = 0
KEN1 200624Z 14010KT 28/10 A3009 RMK A01 T02790100  RH  033%=      5-min Rain = 0
KEN1 200625Z 14009KT 28/10 A3009 RMK A01 T02780101  RH  033%=      5-min Rain = 0
KEN1 200626Z 15009KT 28/10 A3009 RMK A01 T02770100  RH  033%=      5-min Rain = 0
KEN1 200627Z 15009KT 28/10 A3009 RMK A01 T02770101  RH  033%=      5-min Rain = 0
KEN1 200628Z 14010KT 28/10 A3009 RMK A01 T02750101  RH  034%=      5-min Rain = 0
KEN1 200629Z 15010KT 27/10 A3009 RMK A01 T02740101  RH  034%=      5-min Rain = 0
KEN1 200630Z 14010KT 27/10 A3009 RMK A01 T02740101  RH  034%=      5-min Rain = 0
KEN1 200631Z 14010KT 27/10 A3009 RMK A01 T02730101  RH  034%=      5-min Rain = 0
KEN1 200632Z 14009KT 27/10 A3009 RMK A01 T02730101  RH  034%=      5-min Rain = 0
KEN1 200633Z 14009KT 27/10 A3009 RMK A01 T02730102  RH  034%=      5-min Rain = 0
KEN1 200634Z 14009KT 27/10 A3009 RMK A01 T02720102  RH  034%=      5-min Rain = 0
KEN1 200635Z 14010KT 27/10 A3009 RMK A01 T02720102  RH  035%=      5-min Rain = 0
KEN1 200636Z 14010KT 27/10 A3009 RMK A01 T02720102  RH  035%=      5-min Rain = 0
KEN1 200637Z 14010KT 27/10 A3009 RMK A01 T02720102  RH  035%=      5-min Rain = 0
KEN1 200638Z 14011KT 27/10 A3009 RMK A01 T02720102  RH  035%=      5-min Rain = 0
KEN1 200639Z 14010KT 27/10 A3009 RMK A01 T02720102  RH  035%=      5-min Rain = 0
KEN1 200640Z 14010KT 27/10 A301 RMK A01 T02710103  RH  035%=      5-min Rain = 0
KEN1 200641Z 14009KT 27/10 A301 RMK A01 T02710103  RH  035%=      5-min Rain = 0
KEN1 200642Z 14010KT 27/10 A301 RMK A01 T02700104  RH  035%=      5-min Rain = 0
KEN1 200643Z 14010KT 27/10 A301 RMK A01 T02690104  RH  035%=      5-min Rain = 0
KEN1 200644Z 14011KT 27/11 A301 RMK A01 T02700105  RH  036%=      5-min Rain = 0
KEN1 200645Z 14010KT 27/11 A301 RMK A01 T02690105  RH  036%=      5-min Rain = 0
KEN1 200646Z 14010KT 27/11 A301 RMK A01 T02680105  RH  036%=      5-min Rain = 0
KEN1 200647Z 14010KT 27/11 A301 RMK A01 T02680106  RH  036%=      5-min Rain = 0
KEN1 200648Z 14010KT 27/11 A301 RMK A01 T02670106  RH  036%=      5-min Rain = 0
KEN1 200649Z 14009KT 27/11 A301 RMK A01 T02670106  RH  037%=      5-min Rain = 0
KEN1 200650Z 14009KT 27/11 A301 RMK A01 T02650106  RH  037%=      5-min Rain = 0
KEN1 200651Z 14009KT 26/11 A301 RMK A01 T02640107  RH  037%=      5-min Rain = 0
KEN1 200652Z 14009KT 26/11 A301 RMK A01 T02630107  RH  038%=      5-min Rain = 0
KEN1 200653Z 15009KT 26/11 A301 RMK A01 T02620107  RH  038%=      5-min Rain = 0
KEN1 200654Z 14009KT 26/11 A301 RMK A01 T02610107  RH  038%=      5-min Rain = 0
KEN1 200655Z 14009KT 26/11 A301 RMK A01 T02610107  RH  038%=      5-min Rain = 0
KEN1 200656Z 14009KT 26/11 A301 RMK A01 T02600107  RH  038%=      5-min Rain = 0
KEN1 200657Z 14009KT 26/11 A301 RMK A01 T02600108  RH  039%=      5-min Rain = 0
KEN1 200658Z 14009KT 26/11 A301 RMK A01 T02590108  RH  039%=      5-min Rain = 0
KEN1 200659Z 14009KT 26/11 A301 RMK A01 T02580108  RH  039%=      5-min Rain = 0
KEN1 200700Z 14009KT 26/11 A301 RMK A01 T02570108  RH  039%=      5-min Rain = 0
KEN1 200701Z 14008KT 26/11 A301 RMK A01 T02560108  RH  039%=      5-min Rain = 0
KEN1 200702Z 14008KT 26/11 A301 RMK A01 T02560108  RH  040%=      5-min Rain = 0
KEN1 200703Z 14008KT 26/11 A301 RMK A01 T02550108  RH  040%=      5-min Rain = 0
KEN1 200704Z 14008KT 25/11 A301 RMK A01 T02540108  RH  040%=      5-min Rain = 0
KEN1 200705Z 14008KT 25/11 A3009 RMK A01 T02540108  RH  040%=      5-min Rain = 0
KEN1 200706Z 14008KT 25/11 A3009 RMK A01 T02540108  RH  040%=      5-min Rain = 0
KEN1 200707Z 14008KT 25/11 A3009 RMK A01 T02540108  RH  040%=      5-min Rain = 0
KEN1 200708Z 15008KT 25/11 A3009 RMK A01 T02540108  RH  040%=      5-min Rain = 0
KEN1 200709Z 15007KT 25/11 A3009 RMK A01 T02530107  RH  040%=      5-min Rain = 0
KEN1 200710Z 15007KT 25/11 A3009 RMK A01 T02530108  RH  040%=      5-min Rain = 0
KEN1 200711Z 15007KT 25/11 A3009 RMK A01 T02520108  RH  040%=      5-min Rain = 0
KEN1 200712Z 15007KT 25/11 A3009 RMK A01 T02520108  RH  040%=      5-min Rain = 0
KEN1 200713Z 15007KT 25/11 A3009 RMK A01 T02510108  RH  041%=      5-min Rain = 0
KEN1 200714Z 15007KT 25/11 A3009 RMK A01 T02500108  RH  041%=      5-min Rain = 0
KEN1 200715Z 15007KT 25/11 A3009 RMK A01 T02500108  RH  041%=      5-min Rain = 0
KEN1 200716Z 14008KT 25/11 A3009 RMK A01 T02490108  RH  041%=      5-min Rain = 0
KEN1 200717Z 14008KT 25/11 A3009 RMK A01 T02490107  RH  041%=      5-min Rain = 0
KEN1 200718Z 14008KT 25/11 A3009 RMK A01 T02490108  RH  041%=      5-min Rain = 0
KEN1 200719Z 14008KT 25/11 A3009 RMK A01 T02480108  RH  041%=      5-min Rain = 0
KEN1 200720Z 14008KT 25/11 A3009 RMK A01 T02480108  RH  041%=      5-min Rain = 0
KEN1 200721Z 14007KT 25/11 A3009 RMK A01 T02480108  RH  041%=      5-min Rain = 0
KEN1 200722Z 15007KT 25/11 A3009 RMK A01 T02470108  RH  041%=      5-min Rain = 0
KEN1 200723Z 14008KT 25/11 A3009 RMK A01 T02470108  RH  042%=      5-min Rain = 0
KEN1 200724Z 14008KT 25/11 A3009 RMK A01 T02460107  RH  041%=      5-min Rain = 0
KEN1 200725Z 14008KT 25/11 A3009 RMK A01 T02470107  RH  041%=      5-min Rain = 0
KEN1 200726Z 14008KT 25/11 A3009 RMK A01 T02460107  RH  041%=      5-min Rain = 0
KEN1 200727Z 14008KT 25/11 A3009 RMK A01 T02470107  RH  041%=      5-min Rain = 0
KEN1 200728Z 15009KT 25/11 A3009 RMK A01 T02470107  RH  041%=      5-min Rain = 0
KEN1 200729Z 14008KT 25/11 A3009 RMK A01 T02480107  RH  041%=      5-min Rain = 0
KEN1 200730Z 14009KT 25/11 A3009 RMK A01 T02490107  RH  041%=      5-min Rain = 0
KEN1 200731Z 14009KT 25/11 A3009 RMK A01 T02490107  RH  041%=      5-min Rain = 0
KEN1 200732Z 14009KT 25/11 A3009 RMK A01 T02500108  RH  041%=      5-min Rain = 0
KEN1 200733Z 14009KT 25/11 A3009 RMK A01 T02510108  RH  041%=      5-min Rain = 0
KEN1 200734Z 14009KT 25/11 A3009 RMK A01 T02510108  RH  041%=      5-min Rain = 0
KEN1 200735Z 14009KT 25/11 A3009 RMK A01 T02520108  RH  040%=      5-min Rain = 0
KEN1 200736Z 14010KT 25/11 A3009 RMK A01 T02520108  RH  040%=      5-min Rain = 0
KEN1 200737Z 14010KT 25/11 A3009 RMK A01 T02530108  RH  040%=      5-min Rain = 0
KEN1 200738Z 14009KT 25/11 A3009 RMK A01 T02540109  RH  040%=      5-min Rain = 0
KEN1 200739Z 14010KT 25/11 A3009 RMK A01 T02540109  RH  040%=      5-min Rain = 0
KEN1 200740Z 14010KT 26/11 A3009 RMK A01 T02550110  RH  040%=      5-min Rain = 0
KEN1 200741Z 14010KT 26/11 A3009 RMK A01 T02550110  RH  040%=      5-min Rain = 0
KEN1 200742Z 14010KT 26/11 A3009 RMK A01 T02560110  RH  040%=      5-min Rain = 0
KEN1 200743Z 14010KT 26/11 A3009 RMK A01 T02560111  RH  040%=      5-min Rain = 0
KEN1 200744Z 14010KT 26/11 A3009 RMK A01 T02570111  RH  040%=      5-min Rain = 0
KEN1 200745Z 13010KT 26/11 A3009 RMK A01 T02570111  RH  040%=      5-min Rain = 0
KEN1 200746Z 14010KT 26/11 A3009 RMK A01 T02570112  RH  040%=      5-min Rain = 0
KEN1 200747Z 14010KT 26/11 A3009 RMK A01 T02570113  RH  040%=      5-min Rain = 0
KEN1 200748Z 13010KT 26/11 A3009 RMK A01 T02570113  RH  041%=      5-min Rain = 0
KEN1 200749Z 13010KT 26/11 A3009 RMK A01 T02580114  RH  041%=      5-min Rain = 0
KEN1 200750Z 14009KT 26/12 A3009 RMK A01 T02590115  RH  041%=      5-min Rain = 0
KEN1 200751Z 14010KT 26/12 A3009 RMK A01 T02590116  RH  041%=      5-min Rain = 0
KEN1 200752Z 14010KT 26/12 A3009 RMK A01 T02600116  RH  041%=      5-min Rain = 0
KEN1 200753Z 14010KT 26/12 A3009 RMK A01 T02610116  RH  041%=      5-min Rain = 0
KEN1 200754Z 14010KT 26/12 A3009 RMK A01 T02620117  RH  040%=      5-min Rain = 0
KEN1 200755Z 14010KT 26/12 A3009 RMK A01 T02620117  RH  040%=      5-min Rain = 0
KEN1 200756Z 14011KT 26/12 A3009 RMK A01 T02630118  RH  040%=      5-min Rain = 0
KEN1 200757Z 14010KT 26/12 A3009 RMK A01 T02640118  RH  040%=      5-min Rain = 0
KEN1 200758Z 14011KT 27/12 A3009 RMK A01 T02650119  RH  040%=      5-min Rain = 0
KEN1 200759Z 14011KT 27/12 A3009 RMK A01 T02660118  RH  040%=      5-min Rain = 0
KEN1 200800Z 14012KT 27/12 A3009 RMK A01 T02670119  RH  040%=      5-min Rain = 0
KEN1 200801Z 14011KT 27/12 A301 RMK A01 T02680118  RH  039%=      5-min Rain = 0
KEN1 200802Z 14010KT 27/12 A301 RMK A01 T02690119  RH  039%=      5-min Rain = 0
KEN1 200803Z 14012KT 27/12 A301 RMK A01 T02690119  RH  039%=      5-min Rain = 0
KEN1 200804Z 14012KT 27/12 A301 RMK A01 T02700119  RH  039%=      5-min Rain = 0
KEN1 200805Z 14011KT 27/12 A301 RMK A01 T02710119  RH  039%=      5-min Rain = 0
KEN1 200806Z 14011KT 27/12 A301 RMK A01 T02710119  RH  039%=      5-min Rain = 0
KEN1 200807Z 14012KT 27/12 A3009 RMK A01 T02710119  RH  039%=      5-min Rain = 0
KEN1 200808Z 14011KT 27/12 A3009 RMK A01 T02710119  RH  039%=      5-min Rain = 0
KEN1 200809Z 14012KT 27/12 A301 RMK A01 T02710120  RH  039%=      5-min Rain = 0
KEN1 200810Z 14012KT 27/12 A301 RMK A01 T02710120  RH  039%=      5-min Rain = 0
KEN1 200811Z 14011KT 27/12 A301 RMK A01 T02710120  RH  039%=      5-min Rain = 0
KEN1 200812Z 14010KT 27/12 A301 RMK A01 T02710121  RH  039%=      5-min Rain = 0
KEN1 200813Z 14011KT 27/12 A301 RMK A01 T02710121  RH  039%=      5-min Rain = 0
KEN1 200814Z 14012KT 27/12 A301 RMK A01 T02720122  RH  039%=      5-min Rain = 0
KEN1 200815Z 14011KT 27/12 A301 RMK A01 T02720122  RH  039%=      5-min Rain = 0
KEN1 200816Z 14011KT 27/12 A301 RMK A01 T02730123  RH  039%=      5-min Rain = 0
KEN1 200817Z 14011KT 27/12 A301 RMK A01 T02730123  RH  039%=      5-min Rain = 0
KEN1 200818Z 14011KT 27/12 A301 RMK A01 T02730123  RH  040%=      5-min Rain = 0
KEN1 200819Z 14011KT 27/12 A301 RMK A01 T02720123  RH  040%=      5-min Rain = 0
KEN1 200820Z 14010KT 27/12 A301 RMK A01 T02730124  RH  040%=      5-min Rain = 0
KEN1 200821Z 14011KT 27/12 A3009 RMK A01 T02720124  RH  040%=      5-min Rain = 0
KEN1 200822Z 15010KT 27/12 A3009 RMK A01 T02720124  RH  040%=      5-min Rain = 0
KEN1 200823Z 15011KT 27/12 A3009 RMK A01 T02720124  RH  040%=      5-min Rain = 0
KEN1 200824Z 15010KT 27/12 A3009 RMK A01 T02710124  RH  040%=      5-min Rain = 0
KEN1 200825Z 15010KT 27/13 A3009 RMK A01 T02720125  RH  040%=      5-min Rain = 0
KEN1 200826Z 15011KT 27/13 A3009 RMK A01 T02710125  RH  040%=      5-min Rain = 0
KEN1 200827Z 15011KT 27/13 A3009 RMK A01 T02710125  RH  040%=      5-min Rain = 0
KEN1 200828Z 15010KT 27/13 A301 RMK A01 T02710125  RH  040%=      5-min Rain = 0
KEN1 200829Z 15011KT 27/13 A301 RMK A01 T02710126  RH  040%=      5-min Rain = 0
KEN1 200830Z 15010KT 27/13 A301 RMK A01 T02710126  RH  041%=      5-min Rain = 0
KEN1 200831Z 15010KT 27/13 A301 RMK A01 T02710126  RH  041%=      5-min Rain = 0
KEN1 200832Z 15011KT 27/13 A301 RMK A01 T02720127  RH  041%=      5-min Rain = 0
KEN1 200833Z 14009KT 27/13 A301 RMK A01 T02720127  RH  041%=      5-min Rain = 0
KEN1 200834Z 14010KT 27/13 A301 RMK A01 T02720128  RH  041%=      5-min Rain = 0
KEN1 200835Z 14007KT 27/13 A301 RMK A01 T02720128  RH  041%=      5-min Rain = 0
KEN1 200836Z 14007KT 27/13 A301 RMK A01 T02710128  RH  041%=      5-min Rain = 0
KEN1 200837Z 14008KT 27/13 A301 RMK A01 T02690127  RH  041%=      5-min Rain = 0
KEN1 200838Z 14009KT 27/13 A301 RMK A01 T02690127  RH  042%=      5-min Rain = 0
KEN1 200839Z 15010KT 27/13 A301 RMK A01 T02690128  RH  042%=      5-min Rain = 0
KEN1 200840Z 15012KT 27/13 A301 RMK A01 T02690128  RH  042%=      5-min Rain = 0
KEN1 200841Z 15009KT 27/13 A301 RMK A01 T02690128  RH  042%=      5-min Rain = 0
KEN1 200842Z 15011KT 27/13 A301 RMK A01 T02700129  RH  042%=      5-min Rain = 0
KEN1 200843Z 15011KT 27/13 A301 RMK A01 T02700129  RH  042%=      5-min Rain = 0
KEN1 200844Z 15011KT 27/13 A301 RMK A01 T02700129  RH  042%=      5-min Rain = 0
KEN1 200845Z 15011KT 27/13 A301 RMK A01 T02700129  RH  042%=      5-min Rain = 0
KEN1 200846Z 15012KT 27/13 A301 RMK A01 T02700129  RH  042%=      5-min Rain = 0
KEN1 200847Z 15012KT 27/13 A301 RMK A01 T02700129  RH  042%=      5-min Rain = 0
KEN1 200848Z 15012KT 27/13 A301 RMK A01 T02700129  RH  042%=      5-min Rain = 0
KEN1 200849Z 15011KT 27/13 A301 RMK A01 T02700129  RH  042%=      5-min Rain = 0
KEN1 200850Z 16010KT 27/13 A301 RMK A01 T02700130  RH  042%=      5-min Rain = 0
KEN1 200851Z 15010KT 27/13 A301 RMK A01 T02700130  RH  042%=      5-min Rain = 0
KEN1 200852Z 15010KT 27/13 A301 RMK A01 T02690130  RH  042%=      5-min Rain = 0
KEN1 200853Z 16011KT 27/13 A301 RMK A01 T02690131  RH  042%=      5-min Rain = 0
KEN1 200854Z 16010KT 27/13 A301 RMK A01 T02690130  RH  042%=      5-min Rain = 0
KEN1 200855Z 15009KT 27/13 A301 RMK A01 T02690131  RH  042%=      5-min Rain = 0
KEN1 200856Z 16010KT 27/13 A301 RMK A01 T02680131  RH  043%=      5-min Rain = 0
KEN1 200857Z 15010KT 27/13 A301 RMK A01 T02680131  RH  043%=      5-min Rain = 0
KEN1 200858Z 16009KT 27/13 A301 RMK A01 T02680131  RH  043%=      5-min Rain = 0
KEN1 200859Z 16010KT 27/13 A301 RMK A01 T02670131  RH  043%=      5-min Rain = 0
KEN1 200900Z 16009KT 27/13 A301 RMK A01 T02670131  RH  043%=      5-min Rain = 0
KEN1 200901Z 16008KT 27/13 A301 RMK A01 T02660132  RH  043%=      5-min Rain = 0
KEN1 200902Z 15008KT 27/13 A301 RMK A01 T02660132  RH  043%=      5-min Rain = 0
KEN1 200903Z 15008KT 27/13 A301 RMK A01 T02660132  RH  044%=      5-min Rain = 0
KEN1 200904Z 15008KT 27/13 A301 RMK A01 T02650132  RH  044%=      5-min Rain = 0
KEN1 200905Z 16008KT 26/13 A301 RMK A01 T02640132  RH  044%=      5-min Rain = 0
KEN1 200906Z 16007KT 26/13 A301 RMK A01 T02640132  RH  044%=      5-min Rain = 0
KEN1 200907Z 16008KT 26/13 A301 RMK A01 T02630133  RH  044%=      5-min Rain = 0
KEN1 200908Z 16008KT 26/13 A3011 RMK A01 T02630133  RH  045%=      5-min Rain = 0
KEN1 200909Z 16008KT 26/13 A3011 RMK A01 T02620133  RH  045%=      5-min Rain = 0
KEN1 200910Z 16009KT 26/13 A3011 RMK A01 T02620132  RH  045%=      5-min Rain = 0
KEN1 200911Z 16009KT 26/13 A3011 RMK A01 T02620133  RH  045%=      5-min Rain = 0
KEN1 200912Z 15008KT 26/13 A3011 RMK A01 T02620133  RH  045%=      5-min Rain = 0
KEN1 200913Z 16008KT 26/13 A3011 RMK A01 T02620133  RH  045%=      5-min Rain = 0
KEN1 200914Z 16009KT 26/13 A3011 RMK A01 T02620133  RH  045%=      5-min Rain = 0
KEN1 200915Z 15009KT 26/13 A3011 RMK A01 T02620133  RH  045%=      5-min Rain = 0
KEN1 200916Z 16008KT 26/13 A3011 RMK A01 T02620133  RH  045%=      5-min Rain = 0
KEN1 200917Z 16009KT 26/13 A3011 RMK A01 T02620133  RH  045%=      5-min Rain = 0
KEN1 200918Z 16009KT 26/13 A3011 RMK A01 T02610133  RH  045%=      5-min Rain = 0
KEN1 200919Z 15008KT 26/13 A3011 RMK A01 T02610133  RH  045%=      5-min Rain = 0
KEN1 200920Z 15009KT 26/13 A3011 RMK A01 T02610133  RH  045%=      5-min Rain = 0
KEN1 200921Z 15009KT 26/13 A3011 RMK A01 T02610133  RH  045%=      5-min Rain = 0
KEN1 200922Z 15009KT 26/13 A3011 RMK A01 T02610133  RH  045%=      5-min Rain = 0
KEN1 200923Z 16008KT 26/13 A3011 RMK A01 T02610133  RH  045%=      5-min Rain = 0
KEN1 200924Z 16009KT 26/13 A3011 RMK A01 T02610132  RH  045%=      5-min Rain = 0
KEN1 200925Z 16009KT 26/13 A3011 RMK A01 T02620133  RH  045%=      5-min Rain = 0
KEN1 200926Z 16010KT 26/13 A3011 RMK A01 T02620132  RH  045%=      5-min Rain = 0
KEN1 200927Z 16009KT 26/13 A3011 RMK A01 T02620132  RH  045%=      5-min Rain = 0
KEN1 200928Z 16010KT 26/13 A3011 RMK A01 T02630132  RH  044%=      5-min Rain = 0
KEN1 200929Z 16010KT 26/13 A3011 RMK A01 T02640131  RH  044%=      5-min Rain = 0
KEN1 200930Z 16009KT 27/13 A3011 RMK A01 T02650132  RH  044%=      5-min Rain = 0
KEN1 200931Z 16010KT 27/13 A3011 RMK A01 T02660132  RH  044%=      5-min Rain = 0
KEN1 200932Z 16009KT 27/13 A3011 RMK A01 T02650132  RH  044%=      5-min Rain = 0
KEN1 200933Z 17009KT 27/13 A3011 RMK A01 T02650131  RH  044%=      5-min Rain = 0
KEN1 200934Z 17010KT 27/13 A3011 RMK A01 T02660131  RH  043%=      5-min Rain = 0
KEN1 200935Z 17009KT 27/13 A3011 RMK A01 T02670131  RH  043%=      5-min Rain = 0
KEN1 200936Z 17009KT 27/13 A3011 RMK A01 T02670132  RH  043%=      5-min Rain = 0
KEN1 200937Z 17008KT 27/13 A3011 RMK A01 T02670132  RH  043%=      5-min Rain = 0
KEN1 200938Z 17009KT 27/13 A3011 RMK A01 T02660132  RH  043%=      5-min Rain = 0
KEN1 200939Z 17010KT 27/13 A3011 RMK A01 T02660131  RH  043%=      5-min Rain = 0
KEN1 200940Z 18008KT 27/13 A3011 RMK A01 T02670130  RH  043%=      5-min Rain = 0
KEN1 200941Z 18009KT 27/13 A3011 RMK A01 T02680131  RH  043%=      5-min Rain = 0
KEN1 200942Z 18010KT 27/13 A3011 RMK A01 T02680130  RH  042%=      5-min Rain = 0
KEN1 200943Z 18009KT 27/13 A3011 RMK A01 T02690129  RH  042%=      5-min Rain = 0
KEN1 200944Z 18010KT 27/13 A3011 RMK A01 T02700129  RH  042%=      5-min Rain = 0
KEN1 200945Z 18010KT 27/13 A3011 RMK A01 T02710128  RH  041%=      5-min Rain = 0
KEN1 200946Z 18009KT 27/13 A3011 RMK A01 T02720128  RH  041%=      5-min Rain = 0
KEN1 200947Z 18009KT 27/13 A3011 RMK A01 T02730128  RH  041%=      5-min Rain = 0
KEN1 200948Z 18009KT 27/13 A3011 RMK A01 T02740128  RH  040%=      5-min Rain = 0
KEN1 200949Z 18009KT 27/13 A3011 RMK A01 T02740128  RH  040%=      5-min Rain = 0
KEN1 200950Z 18009KT 27/13 A3011 RMK A01 T02740128  RH  040%=      5-min Rain = 0
KEN1 200951Z 18009KT 27/13 A3011 RMK A01 T02740128  RH  040%=      5-min Rain = 0
KEN1 200952Z 18009KT 27/13 A3011 RMK A01 T02740127  RH  040%=      5-min Rain = 0
KEN1 200953Z 18008KT 27/13 A3011 RMK A01 T02740127  RH  040%=      5-min Rain = 0
KEN1 200954Z 18008KT 27/13 A3011 RMK A01 T02740128  RH  040%=      5-min Rain = 0
KEN1 200955Z 17008KT 27/13 A3011 RMK A01 T02740128  RH  041%=      5-min Rain = 0
KEN1 200956Z 18008KT 27/13 A3011 RMK A01 T02730128  RH  041%=      5-min Rain = 0
KEN1 200957Z 18007KT 27/13 A3011 RMK A01 T02730128  RH  041%=      5-min Rain = 0
KEN1 200958Z 18007KT 27/13 A3011 RMK A01 T02720128  RH  041%=      5-min Rain = 0
KEN1 200959Z 18008KT 27/13 A3011 RMK A01 T02710129  RH  041%=      5-min Rain = 0
KEN1 201000Z 18008KT 27/13 A3011 RMK A01 T02710129  RH  041%=      5-min Rain = 0
KEN1 201001Z 18010KT 27/13 A3011 RMK A01 T02710128  RH  041%=      5-min Rain = 0
KEN1 201002Z 18008KT 27/13 A3011 RMK A01 T02720127  RH  041%=      5-min Rain = 0
KEN1 201003Z 18009KT 27/13 A3011 RMK A01 T02720128  RH  041%=      5-min Rain = 0
KEN1 201004Z 18009KT 27/13 A3011 RMK A01 T02730128  RH  041%=      5-min Rain = 0
KEN1 201005Z 18009KT 27/13 A3011 RMK A01 T02730127  RH  040%=      5-min Rain = 0
KEN1 201006Z 18009KT 27/13 A3011 RMK A01 T02740127  RH  040%=      5-min Rain = 0
KEN1 201007Z 18010KT 27/13 A3011 RMK A01 T02740127  RH  040%=      5-min Rain = 0
KEN1 201008Z 19010KT 28/13 A3011 RMK A01 T02750127  RH  040%=      5-min Rain = 0
KEN1 201009Z 18009KT 28/13 A3011 RMK A01 T02750127  RH  040%=      5-min Rain = 0
KEN1 201010Z 18008KT 28/13 A3011 RMK A01 T02760127  RH  040%=      5-min Rain = 0
KEN1 201011Z 19007KT 28/13 A3011 RMK A01 T02760128  RH  040%=      5-min Rain = 0
KEN1 201012Z 19008KT 28/13 A3011 RMK A01 T02750128  RH  040%=      5-min Rain = 0
KEN1 201013Z 19008KT 27/13 A3011 RMK A01 T02740127  RH  040%=      5-min Rain = 0
KEN1 201014Z 20007KT 27/13 A3011 RMK A01 T02740128  RH  040%=      5-min Rain = 0
KEN1 201015Z 20007KT 27/13 A3011 RMK A01 T02740128  RH  041%=      5-min Rain = 0
KEN1 201016Z 20007KT 27/13 A3011 RMK A01 T02730128  RH  041%=      5-min Rain = 0
KEN1 201017Z 19007KT 27/13 A3011 RMK A01 T02730128  RH  041%=      5-min Rain = 0
KEN1 201018Z 20007KT 27/13 A3011 RMK A01 T02720128  RH  041%=      5-min Rain = 0
KEN1 201019Z 20007KT 27/13 A3011 RMK A01 T02720128  RH  041%=      5-min Rain = 0
KEN1 201020Z 20006KT 27/13 A3011 RMK A01 T02710129  RH  041%=      5-min Rain = 0
KEN1 201021Z 20006KT 27/13 A3011 RMK A01 T02710129  RH  041%=      5-min Rain = 0
KEN1 201022Z 21006KT 27/13 A3011 RMK A01 T02700129  RH  042%=      5-min Rain = 0
KEN1 201023Z 20007KT 27/13 A3011 RMK A01 T02690129  RH  042%=      5-min Rain = 0
KEN1 201024Z 21010KT 27/13 A3011 RMK A01 T02690129  RH  042%=      5-min Rain = 0
KEN1 201025Z 21009G14KT 27/13 A3011 RMK A01 T02710128  RH  041%=      5-min Rain = 0
KEN1 201026Z 21012KT 27/13 A3011 RMK A01 T02730128  RH  041%=      5-min Rain = 0
KEN1 201027Z 20010KT 28/13 A3011 RMK A01 T02750129  RH  040%=      5-min Rain = 0
KEN1 201028Z 21009KT 28/13 A3012 RMK A01 T02770130  RH  040%=      5-min Rain = 0
KEN1 201029Z 20010KT 28/13 A3011 RMK A01 T02760129  RH  040%=      5-min Rain = 0
KEN1 201030Z 20010KT 28/13 A3012 RMK A01 T02760129  RH  040%=      5-min Rain = 0
KEN1 201031Z 20011KT 28/13 A3012 RMK A01 T02760129  RH  040%=      5-min Rain = 0
KEN1 201032Z 20015KT 28/13 A3012 RMK A01 T02770129  RH  040%=      5-min Rain = 0
KEN1 201033Z 21013KT 28/13 A3012 RMK A01 T02780130  RH  040%=      5-min Rain = 0
KEN1 201034Z 20011KT 28/13 A3011 RMK A01 T02790130  RH  040%=      5-min Rain = 0
KEN1 201035Z 20011KT 28/13 A3012 RMK A01 T02790130  RH  040%=      5-min Rain = 0
KEN1 201036Z 21011KT 28/13 A3012 RMK A01 T02790131  RH  040%=      5-min Rain = 0
KEN1 201037Z 20010KT 28/13 A3012 RMK A01 T02780130  RH  040%=      5-min Rain = 0
KEN1 201038Z 20010KT 28/13 A3012 RMK A01 T02770130  RH  040%=      5-min Rain = 0
KEN1 201039Z 20009KT 28/13 A3012 RMK A01 T02770130  RH  040%=      5-min Rain = 0
KEN1 201040Z 20008KT 28/13 A3012 RMK A01 T02770130  RH  040%=      5-min Rain = 0
KEN1 201041Z 20007KT 28/13 A3012 RMK A01 T02750130  RH  041%=      5-min Rain = 0
KEN1 201042Z 20009KT 27/13 A3012 RMK A01 T02740130  RH  041%=      5-min Rain = 0
KEN1 201043Z 20009KT 27/13 A3012 RMK A01 T02740130  RH  041%=      5-min Rain = 0
KEN1 201044Z 20010KT 27/13 A3012 RMK A01 T02730130  RH  041%=      5-min Rain = 0
KEN1 201045Z 20009KT 27/13 A3012 RMK A01 T02740130  RH  041%=      5-min Rain = 0
KEN1 201046Z 19009KT 28/13 A3012 RMK A01 T02750130  RH  041%=      5-min Rain = 0
KEN1 201047Z 20008KT 28/13 A3012 RMK A01 T02750131  RH  041%=      5-min Rain = 0
KEN1 201048Z 20009KT 28/13 A3011 RMK A01 T02750131  RH  041%=      5-min Rain = 0
KEN1 201049Z 20007KT 28/13 A3012 RMK A01 T02750131  RH  041%=      5-min Rain = 0
KEN1 201050Z 20008KT 27/13 A3012 RMK A01 T02730131  RH  041%=      5-min Rain = 0
KEN1 201051Z 21009KT 27/13 A3012 RMK A01 T02720131  RH  042%=      5-min Rain = 0
KEN1 201052Z 21012KT 27/13 A3011 RMK A01 T02710131  RH  042%=      5-min Rain = 0
KEN1 201053Z 20012KT 27/13 A3011 RMK A01 T02730131  RH  042%=      5-min Rain = 0
KEN1 201054Z 21010KT 28/13 A3011 RMK A01 T02750132  RH  041%=      5-min Rain = 0
KEN1 201055Z 20013KT 28/13 A3011 RMK A01 T02750132  RH  041%=      5-min Rain = 0
KEN1 201056Z 21013KT 28/13 A3011 RMK A01 T02750132  RH  041%=      5-min Rain = 0
KEN1 201057Z 21012KT 28/13 A3011 RMK A01 T02760132  RH  041%=      5-min Rain = 0
KEN1 201058Z 21011KT 28/13 A3011 RMK A01 T02760132  RH  041%=      5-min Rain = 0
KEN1 201059Z 21011KT 28/13 A3011 RMK A01 T02760132  RH  041%=      5-min Rain = 0
KEN1 201100Z 21011KT 28/13 A3011 RMK A01 T02750132  RH  041%=      5-min Rain = 0
KEN1 201101Z 21011KT 28/13 A3011 RMK A01 T02750132  RH  041%=      5-min Rain = 0
KEN1 201102Z 21011KT 28/13 A3011 RMK A01 T02750132  RH  041%=      5-min Rain = 0
KEN1 201103Z 21010KT 28/13 A3011 RMK A01 T02760133  RH  041%=      5-min Rain = 0
KEN1 201104Z 22010KT 28/13 A3011 RMK A01 T02750133  RH  041%=      5-min Rain = 0
KEN1 201105Z 21009KT 27/13 A3011 RMK A01 T02740132  RH  042%=      5-min Rain = 0
KEN1 201106Z 21008KT 27/13 A3011 RMK A01 T02740133  RH  042%=      5-min Rain = 0
KEN1 201107Z 21009KT 27/13 A3011 RMK A01 T02720133  RH  042%=      5-min Rain = 0
KEN1 201108Z 22008KT 27/13 A3011 RMK A01 T02720133  RH  042%=      5-min Rain = 0
KEN1 201109Z 22010G15KT 27/13 A3011 RMK A01 T02710133  RH  042%=      5-min Rain = 0
KEN1 201110Z 22009KT 27/13 A3012 RMK A01 T02710133  RH  042%=      5-min Rain = 0
KEN1 201111Z 22008KT 27/13 A3012 RMK A01 T02710133  RH  043%=      5-min Rain = 0
KEN1 201112Z 22009KT 27/13 A3012 RMK A01 T02700133  RH  043%=      5-min Rain = 0
KEN1 201113Z 22008KT 27/13 A3012 RMK A01 T02700133  RH  043%=      5-min Rain = 0
KEN1 201114Z 22008KT 27/13 A3012 RMK A01 T02700133  RH  043%=      5-min Rain = 0
KEN1 201115Z 22009KT 27/13 A3012 RMK A01 T02690133  RH  043%=      5-min Rain = 0
KEN1 201116Z 23008KT 27/13 A3012 RMK A01 T02700133  RH  043%=      5-min Rain = 0
KEN1 201117Z 24008KT 27/13 A3012 RMK A01 T02700133  RH  043%=      5-min Rain = 0
KEN1 201118Z 23008KT 27/13 A3012 RMK A01 T02690133  RH  043%=      5-min Rain = 0
KEN1 201119Z 23010KT 27/13 A3012 RMK A01 T02690132  RH  043%=      5-min Rain = 0
KEN1 201120Z 23009KT 27/13 A3012 RMK A01 T02680133  RH  043%=      5-min Rain = 0
KEN1 201121Z 23008KT 27/13 A3012 RMK A01 T02690133  RH  043%=      5-min Rain = 0
KEN1 201122Z 23010KT 27/13 A3012 RMK A01 T02680132  RH  043%=      5-min Rain = 0
KEN1 201123Z 23009KT 27/13 A3012 RMK A01 T02680132  RH  043%=      5-min Rain = 0
KEN1 201124Z 23009KT 27/13 A3012 RMK A01 T02690133  RH  043%=      5-min Rain = 0
KEN1 201125Z 23010KT 27/13 A3012 RMK A01 T02680133  RH  043%=      5-min Rain = 0
KEN1 201126Z 24010KT 27/13 A3012 RMK A01 T02680132  RH  043%=      5-min Rain = 0
KEN1 201127Z 23009KT 27/13 A3012 RMK A01 T02680133  RH  043%=      5-min Rain = 0
KEN1 201128Z 24009KT 27/13 A3012 RMK A01 T02680133  RH  043%=      5-min Rain = 0
KEN1 201129Z 24010KT 27/13 A3012 RMK A01 T02680133  RH  043%=      5-min Rain = 0
KEN1 201130Z 23008KT 27/13 A3012 RMK A01 T02670133  RH  043%=      5-min Rain = 0
KEN1 201131Z 23009KT 27/13 A3012 RMK A01 T02670133  RH  043%=      5-min Rain = 0
KEN1 201132Z 23010KT 27/13 A3012 RMK A01 T02670133  RH  043%=      5-min Rain = 0
KEN1 201133Z 23009KT 27/13 A3012 RMK A01 T02670132  RH  043%=      5-min Rain = 0
KEN1 201134Z 23008KT 27/13 A3012 RMK A01 T02660132  RH  044%=      5-min Rain = 0
KEN1 201135Z 23008KT 27/13 A3012 RMK A01 T02670133  RH  044%=      5-min Rain = 0
KEN1 201136Z 23008KT 27/13 A3012 RMK A01 T02660133  RH  044%=      5-min Rain = 0
KEN1 201137Z 23009KT 27/13 A3012 RMK A01 T02660133  RH  044%=      5-min Rain = 0
KEN1 201138Z 23008KT 27/13 A3013 RMK A01 T02670133  RH  044%=      5-min Rain = 0
KEN1 201139Z 23008KT 27/13 A3013 RMK A01 T02670133  RH  044%=      5-min Rain = 0
KEN1 201140Z 23009KT 27/13 A3013 RMK A01 T02670132  RH  043%=      5-min Rain = 0
KEN1 201141Z 23007KT 27/13 A3013 RMK A01 T02670132  RH  043%=      5-min Rain = 0
KEN1 201142Z 23008KT 27/13 A3013 RMK A01 T02670133  RH  043%=      5-min Rain = 0
KEN1 201143Z 23008KT 27/13 A3013 RMK A01 T02670133  RH  044%=      5-min Rain = 0
KEN1 201144Z 24008KT 27/13 A3013 RMK A01 T02660133  RH  044%=      5-min Rain = 0
KEN1 201145Z 24007KT 27/13 A3013 RMK A01 T02660132  RH  044%=      5-min Rain = 0
KEN1 201146Z 24007KT 27/13 A3013 RMK A01 T02670133  RH  044%=      5-min Rain = 0
KEN1 201147Z 24006KT 27/13 A3013 RMK A01 T02670133  RH  044%=      5-min Rain = 0
KEN1 201148Z 24009KT 27/13 A3013 RMK A01 T02670133  RH  044%=      5-min Rain = 0
KEN1 201149Z 24009KT 27/13 A3013 RMK A01 T02670132  RH  043%=      5-min Rain = 0
KEN1 201150Z 25008KT 27/13 A3013 RMK A01 T02680132  RH  043%=      5-min Rain = 0
KEN1 201151Z 24006KT 27/13 A3013 RMK A01 T02680133  RH  043%=      5-min Rain = 0
KEN1 201152Z 23007KT 27/13 A3014 RMK A01 T02680133  RH  043%=      5-min Rain = 0
KEN1 201153Z 23009KT 27/13 A3014 RMK A01 T02680132  RH  043%=      5-min Rain = 0
KEN1 201154Z 23008KT 27/13 A3014 RMK A01 T02680132  RH  043%=      5-min Rain = 0
KEN1 201155Z 24007KT 27/13 A3014 RMK A01 T02680132  RH  043%=      5-min Rain = 0
KEN1 201156Z 23005KT 27/13 A3014 RMK A01 T02680132  RH  043%=      5-min Rain = 0
KEN1 201157Z 23005KT 27/13 A3014 RMK A01 T02670132  RH  043%=      5-min Rain = 0
KEN1 201158Z 24006KT 27/13 A3014 RMK A01 T02660132  RH  044%=      5-min Rain = 0
KEN1 201159Z 24007KT 27/13 A3014 RMK A01 T02660132  RH  044%=      5-min Rain = 0
KEN1 201200Z 26004KT 27/13 A3014 RMK A01 T02660132  RH  044%=      5-min Rain = 0
KEN1 201201Z 27004KT 27/13 A3014 RMK A01 T02660133  RH  044%=      5-min Rain = 0
KEN1 201202Z 25005KT 27/13 A3014 RMK A01 T02650132  RH  044%=      5-min Rain = 0
KEN1 201203Z 27004KT 26/13 A3014 RMK A01 T02640132  RH  044%=      5-min Rain = 0
KEN1 201204Z 28004KT 26/13 A3014 RMK A01 T02640133  RH  044%=      5-min Rain = 0
KEN1 201205Z 25004KT 26/13 A3014 RMK A01 T02630133  RH  045%=      5-min Rain = 0
KEN1 201206Z 24005KT 26/13 A3014 RMK A01 T02620132  RH  045%=      5-min Rain = 0
KEN1 201207Z 24005KT 26/13 A3014 RMK A01 T02620132  RH  045%=      5-min Rain = 0
KEN1 201208Z 23005KT 26/13 A3014 RMK A01 T02620132  RH  044%=      5-min Rain = 0
KEN1 201209Z 23004KT 26/13 A3014 RMK A01 T02620131  RH  044%=      5-min Rain = 0
KEN1 201210Z 23004KT 26/13 A3014 RMK A01 T02620131  RH  044%=      5-min Rain = 0
KEN1 201211Z 22005KT 26/13 A3014 RMK A01 T02620132  RH  044%=      5-min Rain = 0
KEN1 201212Z 22005KT 26/13 A3014 RMK A01 T02620131  RH  044%=      5-min Rain = 0
KEN1 201213Z 22005KT 26/13 A3015 RMK A01 T02620130  RH  044%=      5-min Rain = 0
KEN1 201214Z 22005KT 26/13 A3015 RMK A01 T02630130  RH  044%=      5-min Rain = 0
KEN1 201215Z 21005KT 26/13 A3015 RMK A01 T02630130  RH  044%=      5-min Rain = 0
KEN1 201216Z 21005KT 26/13 A3015 RMK A01 T02630130  RH  044%=      5-min Rain = 0
KEN1 201217Z 22005KT 26/13 A3015 RMK A01 T02630130  RH  044%=      5-min Rain = 0
KEN1 201218Z 21005KT 26/13 A3015 RMK A01 T02620130  RH  044%=      5-min Rain = 0
KEN1 201219Z 21004KT 26/13 A3015 RMK A01 T02620131  RH  044%=      5-min Rain = 0
KEN1 201220Z 22005KT 26/13 A3015 RMK A01 T02620130  RH  044%=      5-min Rain = 0
KEN1 201221Z 22004KT 26/13 A3015 RMK A01 T02620130  RH  044%=      5-min Rain = 0
KEN1 201222Z 23005KT 26/13 A3015 RMK A01 T02620130  RH  044%=      5-min Rain = 0
KEN1 201223Z 21004KT 26/13 A3015 RMK A01 T02620129  RH  044%=      5-min Rain = 0
KEN1 201224Z 19005KT 26/13 A3015 RMK A01 T02620130  RH  044%=      5-min Rain = 0
KEN1 201225Z 22005KT 26/13 A3015 RMK A01 T02620130  RH  044%=      5-min Rain = 0
KEN1 201226Z 22005KT 26/13 A3015 RMK A01 T02610130  RH  044%=      5-min Rain = 0
KEN1 201227Z 19004KT 26/13 A3015 RMK A01 T02610128  RH  044%=      5-min Rain = 0
KEN1 201228Z 20004KT 26/13 A3015 RMK A01 T02620129  RH  044%=      5-min Rain = 0
KEN1 201229Z 21005KT 26/13 A3015 RMK A01 T02630129  RH  044%=      5-min Rain = 0
KEN1 201230Z 22007KT 26/13 A3015 RMK A01 T02630129  RH  044%=      5-min Rain = 0
KEN1 201231Z 21006KT 26/13 A3015 RMK A01 T02640127  RH  043%=      5-min Rain = 0
KEN1 201232Z 23005KT 27/13 A3015 RMK A01 T02660129  RH  043%=      5-min Rain = 0
KEN1 201233Z 21005KT 27/13 A3015 RMK A01 T02660129  RH  043%=      5-min Rain = 0
KEN1 201234Z 17005KT 27/13 A3015 RMK A01 T02660129  RH  043%=      5-min Rain = 0
KEN1 201235Z 16005KT 27/13 A3015 RMK A01 T02650130  RH  043%=      5-min Rain = 0
KEN1 201236Z 17006KT 26/13 A3015 RMK A01 T02640129  RH  043%=      5-min Rain = 0
KEN1 201237Z 18007KT 26/13 A3015 RMK A01 T02640128  RH  043%=      5-min Rain = 0
KEN1 201238Z 19007KT 27/13 A3015 RMK A01 T02650128  RH  043%=      5-min Rain = 0
KEN1 201239Z 18006KT 27/13 A3015 RMK A01 T02670128  RH  042%=      5-min Rain = 0
KEN1 201240Z 18008KT 27/13 A3016 RMK A01 T02670129  RH  043%=      5-min Rain = 0
KEN1 201241Z 20007KT 27/13 A3016 RMK A01 T02660129  RH  043%=      5-min Rain = 0
KEN1 201242Z 19007KT 27/13 A3016 RMK A01 T02660128  RH  043%=      5-min Rain = 0
KEN1 201243Z 18008KT 27/13 A3016 RMK A01 T02660129  RH  043%=      5-min Rain = 0
KEN1 201244Z 18008KT 27/13 A3016 RMK A01 T02660129  RH  043%=      5-min Rain = 0
KEN1 201245Z 18008KT 27/13 A3016 RMK A01 T02660129  RH  043%=      5-min Rain = 0
KEN1 201246Z 18009KT 27/13 A3016 RMK A01 T02650129  RH  043%=      5-min Rain = 0
KEN1 201247Z 20008KT 27/13 A3016 RMK A01 T02650129  RH  043%=      5-min Rain = 0
KEN1 201248Z 19008KT 26/13 A3016 RMK A01 T02640129  RH  043%=      5-min Rain = 0
KEN1 201249Z 18009KT 26/13 A3016 RMK A01 T02640129  RH  043%=      5-min Rain = 0
KEN1 201250Z 18010KT 26/13 A3016 RMK A01 T02640129  RH  043%=      5-min Rain = 0
KEN1 201251Z 19009KT 27/13 A3016 RMK A01 T02650129  RH  043%=      5-min Rain = 0
KEN1 201252Z 18009KT 27/13 A3016 RMK A01 T02650129  RH  043%=      5-min Rain = 0
KEN1 201253Z 19007KT 27/13 A3016 RMK A01 T02650128  RH  043%=      5-min Rain = 0
KEN1 201254Z 19007KT 27/13 A3016 RMK A01 T02650129  RH  043%=      5-min Rain = 0
KEN1 201255Z 18007KT 27/13 A3016 RMK A01 T02650129  RH  043%=      5-min Rain = 0
KEN1 201256Z 19007KT 26/13 A3016 RMK A01 T02640129  RH  043%=      5-min Rain = 0
KEN1 201257Z 19008KT 26/13 A3016 RMK A01 T02640129  RH  043%=      5-min Rain = 0
KEN1 201258Z 19009KT 26/13 A3016 RMK A01 T02630129  RH  043%=      5-min Rain = 0
KEN1 201259Z 20008KT 26/13 A3016 RMK A01 T02640129  RH  043%=      5-min Rain = 0
KEN1 201300Z 20008KT 26/13 A3016 RMK A01 T02640129  RH  043%=      5-min Rain = 0
KEN1 201301Z 21008KT 26/13 A3016 RMK A01 T02640129  RH  043%=      5-min Rain = 0
KEN1 201302Z 21009KT 26/13 A3016 RMK A01 T02640130  RH  043%=      5-min Rain = 0
KEN1 201303Z 19009KT 26/13 A3016 RMK A01 T02640129  RH  043%=      5-min Rain = 0
KEN1 201304Z 20013KT 27/13 A3016 RMK A01 T02650127  RH  043%=      5-min Rain = 0
KEN1 201305Z 22008KT 27/13 A3016 RMK A01 T02670128  RH  042%=      5-min Rain = 0
KEN1 201306Z 21009KT 27/13 A3016 RMK A01 T02680128  RH  042%=      5-min Rain = 0
KEN1 201307Z 22009KT 27/13 A3016 RMK A01 T02680128  RH  042%=      5-min Rain = 0
KEN1 201308Z 21009KT 27/13 A3016 RMK A01 T02680128  RH  042%=      5-min Rain = 0
KEN1 201309Z 22008KT 27/13 A3017 RMK A01 T02680128  RH  042%=      5-min Rain = 0
KEN1 201310Z 26004KT 27/13 A3017 RMK A01 T02680130  RH  042%=      5-min Rain = 0
KEN1 201311Z 09001KT 27/13 A3017 RMK A01 T02660130  RH  043%=      5-min Rain = 0
KEN1 201312Z 00004KT 26/13 A3017 RMK A01 T02640130  RH  043%=      5-min Rain = 0
KEN1 201313Z 01005KT 26/13 A3017 RMK A01 T02630132  RH  044%=      5-min Rain = 0
KEN1 201314Z 01006KT 26/13 A3017 RMK A01 T02600132  RH  045%=      5-min Rain = 0
KEN1 201315Z 01005KT 26/13 A3017 RMK A01 T02580132  RH  046%=      5-min Rain = 0
KEN1 201316Z 03003KT 26/13 A3017 RMK A01 T02560132  RH  046%=      5-min Rain = 0
KEN1 201317Z 02004KT 26/13 A3017 RMK A01 T02560133  RH  047%=      5-min Rain = 0
KEN1 201318Z 02006KT 26/13 A3017 RMK A01 T02550132  RH  047%=      5-min Rain = 0
KEN1 201319Z 02005KT 26/13 A3017 RMK A01 T02560132  RH  046%=      5-min Rain = 0
KEN1 201320Z 01003KT 26/13 A3017 RMK A01 T02560131  RH  046%=      5-min Rain = 0
KEN1 201321Z 03002KT 26/13 A3017 RMK A01 T02570133  RH  046%=      5-min Rain = 0
KEN1 201322Z 03003KT 26/13 A3017 RMK A01 T02570132  RH  046%=      5-min Rain = 0
KEN1 201323Z 02004KT 26/13 A3017 RMK A01 T02570132  RH  046%=      5-min Rain = 0
KEN1 201324Z 01004KT 26/13 A3017 RMK A01 T02580131  RH  046%=      5-min Rain = 0
KEN1 201325Z 01004KT 26/13 A3017 RMK A01 T02580133  RH  046%=      5-min Rain = 0
KEN1 201326Z 02004KT 26/14 A3017 RMK A01 T02580135  RH  047%=      5-min Rain = 0
KEN1 201327Z 02004KT 26/13 A3017 RMK A01 T02580134  RH  046%=      5-min Rain = 0
KEN1 201328Z 00003KT 26/13 A3017 RMK A01 T02580134  RH  046%=      5-min Rain = 0
KEN1 201329Z 01003KT 26/13 A3017 RMK A01 T02580134  RH  046%=      5-min Rain = 0
KEN1 201330Z 02003KT 26/13 A3017 RMK A01 T02580133  RH  046%=      5-min Rain = 0
KEN1 201331Z 03003KT 26/13 A3017 RMK A01 T02590131  RH  045%=      5-min Rain = 0
KEN1 201332Z 04004KT 26/13 A3017 RMK A01 T02610130  RH  044%=      5-min Rain = 0
KEN1 201333Z 05004KT 26/13 A3017 RMK A01 T02620130  RH  044%=      5-min Rain = 0
KEN1 201334Z 03004KT 26/13 A3018 RMK A01 T02630131  RH  044%=      5-min Rain = 0
KEN1 201335Z 02002KT 26/13 A3018 RMK A01 T02630130  RH  044%=      5-min Rain = 0
KEN1 201336Z 03002KT 27/13 A3018 RMK A01 T02650130  RH  043%=      5-min Rain = 0
KEN1 201337Z 04002KT 27/13 A3018 RMK A01 T02650131  RH  044%=      5-min Rain = 0
KEN1 201338Z 10001KT 27/13 A3018 RMK A01 T02650132  RH  044%=      5-min Rain = 0
KEN1 201339Z 22001KT 27/13 A3018 RMK A01 T02650132  RH  044%=      5-min Rain = 0
KEN1 201340Z 22002KT 27/13 A3018 RMK A01 T02650132  RH  044%=      5-min Rain = 0
KEN1 201341Z 21003KT 27/13 A3018 RMK A01 T02660132  RH  044%=      5-min Rain = 0
KEN1 201342Z 19004KT 27/13 A3018 RMK A01 T02660132  RH  044%=      5-min Rain = 0
KEN1 201343Z 19003KT 27/13 A3018 RMK A01 T02660131  RH  043%=      5-min Rain = 0
KEN1 201344Z 24004KT 27/13 A3018 RMK A01 T02670131  RH  043%=      5-min Rain = 0
KEN1 201345Z 22004KT 27/13 A3018 RMK A01 T02680131  RH  043%=      5-min Rain = 0
KEN1 201346Z 22005KT 27/13 A3017 RMK A01 T02680133  RH  043%=      5-min Rain = 0
KEN1 201347Z 21006KT 27/13 A3017 RMK A01 T02670132  RH  043%=      5-min Rain = 0
KEN1 201348Z 21006KT 27/13 A3017 RMK A01 T02670133  RH  044%=      5-min Rain = 0
KEN1 201349Z 21007KT 27/14 A3017 RMK A01 T02660135  RH  044%=      5-min Rain = 0
KEN1 201350Z 20007KT 27/14 A3017 RMK A01 T02660135  RH  044%=      5-min Rain = 0
KEN1 201351Z 20008KT 27/13 A3017 RMK A01 T02660134  RH  044%=      5-min Rain = 0
KEN1 201352Z 20008KT 27/13 A3017 RMK A01 T02660134  RH  044%=      5-min Rain = 0
KEN1 201353Z 20009KT 27/13 A3017 RMK A01 T02670133  RH  043%=      5-min Rain = 0
KEN1 201354Z 20009KT 27/13 A3017 RMK A01 T02680133  RH  043%=      5-min Rain = 0
KEN1 201355Z 19008KT 27/13 A3017 RMK A01 T02690133  RH  043%=      5-min Rain = 0
KEN1 201356Z 19009KT 27/14 A3017 RMK A01 T02680135  RH  044%=      5-min Rain = 0
KEN1 201357Z 19009KT 27/14 A3017 RMK A01 T02680136  RH  044%=      5-min Rain = 0
KEN1 201358Z 19009KT 27/14 A3017 RMK A01 T02670136  RH  044%=      5-min Rain = 0
KEN1 201359Z 19009KT 27/14 A3017 RMK A01 T02670136  RH  044%=      5-min Rain = 0
KEN1 201400Z 19008KT 27/14 A3017 RMK A01 T02660136  RH  045%=      5-min Rain = 0
KEN1 201401Z 19009KT 27/14 A3017 RMK A01 T02660135  RH  044%=      5-min Rain = 0
KEN1 201402Z 19008KT 27/14 A3017 RMK A01 T02660136  RH  045%=      5-min Rain = 0
KEN1 201403Z 19008KT 27/14 A3017 RMK A01 T02670136  RH  044%=      5-min Rain = 0
KEN1 201404Z 19007KT 27/14 A3017 RMK A01 T02670135  RH  044%=      5-min Rain = 0
KEN1 201405Z 19007KT 27/14 A3018 RMK A01 T02670136  RH  044%=      5-min Rain = 0
KEN1 201406Z 19006KT 27/14 A3018 RMK A01 T02670136  RH  044%=      5-min Rain = 0
KEN1 201407Z 18005KT 27/14 A3018 RMK A01 T02670136  RH  045%=      5-min Rain = 0
KEN1 201408Z 18006KT 27/14 A3018 RMK A01 T02670137  RH  045%=      5-min Rain = 0
KEN1 201409Z 17006KT 27/14 A3018 RMK A01 T02680137  RH  044%=      5-min Rain = 0
KEN1 201410Z 16006KT 27/14 A3018 RMK A01 T02680136  RH  044%=      5-min Rain = 0
KEN1 201411Z 15006KT 27/14 A3018 RMK A01 T02680136  RH  044%=      5-min Rain = 0
KEN1 201412Z 15006KT 27/14 A3018 RMK A01 T02680138  RH  045%=      5-min Rain = 0
KEN1 201413Z 15007KT 27/14 A3018 RMK A01 T02680138  RH  045%=      5-min Rain = 0
KEN1 201414Z 15006KT 27/14 A3018 RMK A01 T02680137  RH  045%=      5-min Rain = 0
KEN1 201415Z 14006KT 27/14 A3018 RMK A01 T02690137  RH  044%=      5-min Rain = 0
KEN1 201416Z 15005KT 27/14 A3018 RMK A01 T02690136  RH  044%=      5-min Rain = 0
KEN1 201417Z 15005KT 27/14 A3018 RMK A01 T02690136  RH  044%=      5-min Rain = 0
KEN1 201418Z 14004KT 27/14 A3018 RMK A01 T02700137  RH  044%=      5-min Rain = 0
KEN1 201419Z 13004KT 27/14 A3018 RMK A01 T02700137  RH  044%=      5-min Rain = 0
KEN1 201420Z 14004KT 27/14 A3018 RMK A01 T02700138  RH  044%=      5-min Rain = 0
KEN1 201421Z 15005KT 27/14 A3018 RMK A01 T02700138  RH  044%=      5-min Rain = 0
KEN1 201422Z 15004KT 27/14 A3018 RMK A01 T02700138  RH  044%=      5-min Rain = 0
KEN1 201423Z 14004KT 27/14 A3018 RMK A01 T02700139  RH  045%=      5-min Rain = 0
KEN1 201424Z 14005KT 27/14 A3018 RMK A01 T02700139  RH  045%=      5-min Rain = 0
KEN1 201425Z 14006KT 27/14 A3018 RMK A01 T02710140  RH  045%=      5-min Rain = 0
KEN1 201426Z 14006KT 27/14 A3018 RMK A01 T02700139  RH  045%=      5-min Rain = 0
KEN1 201427Z 14006KT 27/14 A3018 RMK A01 T02700140  RH  045%=      5-min Rain = 0
KEN1 201428Z 14006KT 27/14 A3018 RMK A01 T02700140  RH  045%=      5-min Rain = 0
KEN1 201429Z 15006KT 27/14 A3018 RMK A01 T02690140  RH  045%=      5-min Rain = 0
KEN1 201430Z 15005KT 27/14 A3018 RMK A01 T02690141  RH  045%=      5-min Rain = 0
KEN1 201431Z 15007KT 27/14 A3018 RMK A01 T02690142  RH  046%=      5-min Rain = 0
KEN1 201432Z 15007KT 27/14 A3018 RMK A01 T02690142  RH  046%=      5-min Rain = 0
KEN1 201433Z 17006KT 27/14 A3018 RMK A01 T02690142  RH  046%=      5-min Rain = 0
KEN1 201434Z 17006KT 27/14 A3018 RMK A01 T02690144  RH  046%=      5-min Rain = 0
KEN1 201435Z 17006KT 27/14 A3018 RMK A01 T02690143  RH  046%=      5-min Rain = 0
KEN1 201436Z 19005KT 27/14 A3018 RMK A01 T02690144  RH  046%=      5-min Rain = 0
KEN1 201437Z 18005KT 27/15 A3018 RMK A01 T02700145  RH  046%=      5-min Rain = 0
KEN1 201438Z 18006KT 27/14 A3018 RMK A01 T02710144  RH  046%=      5-min Rain = 0
KEN1 201439Z 20006KT 27/14 A3018 RMK A01 T02710144  RH  046%=      5-min Rain = 0
KEN1 201440Z 21006KT 27/14 A3018 RMK A01 T02720144  RH  046%=      5-min Rain = 0
KEN1 201441Z 20006KT 27/15 A3017 RMK A01 T02740145  RH  045%=      5-min Rain = 0
KEN1 201442Z 21005KT 27/15 A3017 RMK A01 T02740145  RH  045%=      5-min Rain = 0
KEN1 201443Z 20007KT 27/15 A3017 RMK A01 T02740146  RH  046%=      5-min Rain = 0
KEN1 201444Z 21007KT 27/15 A3017 RMK A01 T02740145  RH  045%=      5-min Rain = 0
KEN1 201445Z 21007KT 27/15 A3017 RMK A01 T02740146  RH  045%=      5-min Rain = 0
KEN1 201446Z 21007KT 27/15 A3017 RMK A01 T02740145  RH  045%=      5-min Rain = 0
KEN1 201447Z 21006KT 27/15 A3017 RMK A01 T02740147  RH  046%=      5-min Rain = 0
KEN1 201448Z 21006KT 27/15 A3017 RMK A01 T02740145  RH  045%=      5-min Rain = 0
KEN1 201449Z 21008KT 27/15 A3017 RMK A01 T02740145  RH  045%=      5-min Rain = 0
KEN1 201450Z 22007KT 27/15 A3017 RMK A01 T02740145  RH  045%=      5-min Rain = 0
KEN1 201451Z 22006KT 27/15 A3017 RMK A01 T02740146  RH  046%=      5-min Rain = 0
KEN1 201452Z 22007KT 27/15 A3017 RMK A01 T02730146  RH  046%=      5-min Rain = 0
KEN1 201453Z 22006KT 27/15 A3017 RMK A01 T02730147  RH  046%=      5-min Rain = 0
KEN1 201454Z 21006KT 27/15 A3017 RMK A01 T02730148  RH  046%=      5-min Rain = 0
KEN1 201455Z 21007KT 27/15 A3017 RMK A01 T02740147  RH  046%=      5-min Rain = 0
KEN1 201456Z 22007KT 27/15 A3017 RMK A01 T02740147  RH  046%=      5-min Rain = 0
KEN1 201457Z 22006KT 27/15 A3017 RMK A01 T02740148  RH  046%=      5-min Rain = 0
KEN1 201458Z 22006KT 27/15 A3017 RMK A01 T02740147  RH  046%=      5-min Rain = 0
KEN1 201459Z 23007KT 27/15 A3017 RMK A01 T02740148  RH  046%=      5-min Rain = 0
KEN1 201500Z 22006KT 27/15 A3017 RMK A01 T02740147  RH  046%=      5-min Rain = 0
KEN1 201501Z 22007KT 27/15 A3017 RMK A01 T02740148  RH  046%=      5-min Rain = 0
KEN1 201502Z 21007KT 27/15 A3017 RMK A01 T02740148  RH  046%=      5-min Rain = 0
KEN1 201503Z 20008KT 27/15 A3017 RMK A01 T02740148  RH  046%=      5-min Rain = 0
KEN1 201504Z 20009KT 27/15 A3017 RMK A01 T02740148  RH  046%=      5-min Rain = 0
KEN1 201505Z 21008KT 27/15 A3017 RMK A01 T02740147  RH  046%=      5-min Rain = 0
KEN1 201506Z 21008KT 27/15 A3017 RMK A01 T02740146  RH  046%=      5-min Rain = 0
KEN1 201507Z 21008KT 27/15 A3017 RMK A01 T02740147  RH  046%=      5-min Rain = 0
KEN1 201508Z 21007KT 27/15 A3017 RMK A01 T02740148  RH  046%=      5-min Rain = 0
KEN1 201509Z 21008KT 27/15 A3017 RMK A01 T02740149  RH  046%=      5-min Rain = 0
KEN1 201510Z 21008KT 27/15 A3017 RMK A01 T02740149  RH  046%=      5-min Rain = 0
KEN1 201511Z 21010KT 28/15 A3017 RMK A01 T02750150  RH  047%=      5-min Rain = 0
KEN1 201512Z 21012KT 28/15 A3017 RMK A01 T02750150  RH  046%=      5-min Rain = 0
KEN1 201513Z 21012KT 28/15 A3017 RMK A01 T02750150  RH  047%=      5-min Rain = 0
KEN1 201514Z 22010KT 27/15 A3017 RMK A01 T02740151  RH  047%=      5-min Rain = 0
KEN1 201515Z 22011KT 27/15 A3017 RMK A01 T02740151  RH  047%=      5-min Rain = 0
KEN1 201516Z 22012KT 27/15 A3017 RMK A01 T02740151  RH  047%=      5-min Rain = 0
KEN1 201517Z 22013KT 27/15 A3017 RMK A01 T02740152  RH  047%=      5-min Rain = 0
KEN1 201518Z 23011KT 27/15 A3017 RMK A01 T02740152  RH  047%=      5-min Rain = 0
KEN1 201519Z 22011KT 27/15 A3017 RMK A01 T02740152  RH  047%=      5-min Rain = 0
KEN1 201520Z 23012KT 27/15 A3017 RMK A01 T02740152  RH  047%=      5-min Rain = 0
KEN1 201521Z 23011KT 27/15 A3017 RMK A01 T02740152  RH  047%=      5-min Rain = 0
KEN1 201522Z 22010KT 27/15 A3017 RMK A01 T02740152  RH  047%=      5-min Rain = 0
KEN1 201523Z 22008KT 27/15 A3017 RMK A01 T02740153  RH  048%=      5-min Rain = 0
KEN1 201524Z 23008KT 28/16 A3017 RMK A01 T02760155  RH  048%=      5-min Rain = 0
KEN1 201525Z 23011KT 28/15 A3017 RMK A01 T02770154  RH  047%=      5-min Rain = 0
KEN1 201526Z 22010KT 28/15 A3017 RMK A01 T02770153  RH  047%=      5-min Rain = 0
KEN1 201527Z 23009KT 28/15 A3017 RMK A01 T02770154  RH  047%=      5-min Rain = 0
KEN1 201528Z 23011KT 28/15 A3018 RMK A01 T02770153  RH  047%=      5-min Rain = 0
KEN1 201529Z 23011KT 28/15 A3018 RMK A01 T02770153  RH  047%=      5-min Rain = 0
KEN1 201530Z 22011KT 28/15 A3018 RMK A01 T02780153  RH  047%=      5-min Rain = 0
KEN1 201531Z 22011KT 28/15 A3018 RMK A01 T02780154  RH  047%=      5-min Rain = 0
KEN1 201532Z 22011KT 28/15 A3018 RMK A01 T02780154  RH  047%=      5-min Rain = 0
KEN1 201533Z 21012KT 28/15 A3018 RMK A01 T02770154  RH  047%=      5-min Rain = 0
KEN1 201534Z 22009KT 28/16 A3018 RMK A01 T02770155  RH  047%=      5-min Rain = 0
KEN1 201535Z 22008KT 28/16 A3018 RMK A01 T02800156  RH  047%=      5-min Rain = 0
KEN1 201536Z 22009KT 28/16 A3017 RMK A01 T02820157  RH  047%=      5-min Rain = 0
KEN1 201537Z 22010KT 28/16 A3017 RMK A01 T02830156  RH  046%=      5-min Rain = 0
KEN1 201538Z 21012KT 28/16 A3017 RMK A01 T02840156  RH  046%=      5-min Rain = 0
KEN1 201539Z 21010KT 29/15 A3017 RMK A01 T02850154  RH  045%=      5-min Rain = 0
KEN1 201540Z 20011KT 29/16 A3017 RMK A01 T02870157  RH  045%=      5-min Rain = 0
KEN1 201541Z 22010KT 29/16 A3017 RMK A01 T02880156  RH  045%=      5-min Rain = 0
KEN1 201542Z 23012KT 29/16 A3017 RMK A01 T02900158  RH  045%=      5-min Rain = 0
KEN1 201543Z 22011KT 29/16 A3017 RMK A01 T02930157  RH  044%=      5-min Rain = 0
KEN1 201544Z 21012KT 30/16 A3017 RMK A01 T02960159  RH  043%=      5-min Rain = 0
KEN1 201545Z 21011KT 30/16 A3018 RMK A01 T02950158  RH  043%=      5-min Rain = 0
KEN1 201546Z 21010KT 29/16 A3017 RMK A01 T02920157  RH  044%=      5-min Rain = 0
KEN1 201547Z 22012KT 29/16 A3017 RMK A01 T02920159  RH  045%=      5-min Rain = 0
KEN1 201548Z 22010KT 30/16 A3018 RMK A01 T02950159  RH  044%=      5-min Rain = 0
KEN1 201549Z 22011KT 29/16 A3018 RMK A01 T02930157  RH  044%=      5-min Rain = 0
KEN1 201550Z 20011KT 29/16 A3018 RMK A01 T02900157  RH  044%=      5-min Rain = 0
KEN1 201551Z 21010KT 29/16 A3018 RMK A01 T02890158  RH  045%=      5-min Rain = 0
KEN1 201552Z 23008KT 29/16 A3018 RMK A01 T02890158  RH  045%=      5-min Rain = 0
KEN1 201553Z 23010KT 29/16 A3018 RMK A01 T02910158  RH  045%=      5-min Rain = 0
KEN1 201554Z 22010KT 29/16 A3018 RMK A01 T02920158  RH  044%=      5-min Rain = 0
KEN1 201555Z 21010KT 29/16 A3018 RMK A01 T02940158  RH  044%=      5-min Rain = 0
KEN1 201556Z 20012KT 30/16 A3018 RMK A01 T02980158  RH  043%=      5-min Rain = 0
KEN1 201557Z 20011KT 30/16 A3017 RMK A01 T03000156  RH  042%=      5-min Rain = 0
KEN1 201558Z 21014KT 30/16 A3017 RMK A01 T03010158  RH  042%=      5-min Rain = 0
KEN1 201559Z 20012KT 30/16 A3017 RMK A01 T03030155  RH  041%=      5-min Rain = 0
KEN1 201600Z 21013KT 30/15 A3017 RMK A01 T03020153  RH  041%=      5-min Rain = 0
KEN1 201601Z 22013KT 30/15 A3017 RMK A01 T03020153  RH  040%=      5-min Rain = 0
KEN1 201602Z 22014KT 31/15 A3017 RMK A01 T03050154  RH  040%=      5-min Rain = 0
KEN1 201603Z 23013KT 31/15 A3017 RMK A01 T03050153  RH  040%=      5-min Rain = 0
KEN1 201604Z 22013KT 30/15 A3017 RMK A01 T03010152  RH  040%=      5-min Rain = 0
KEN1 201605Z 21012KT 30/15 A3017 RMK A01 T02980153  RH  041%=      5-min Rain = 0
KEN1 201606Z 21014KT 30/15 A3017 RMK A01 T02960151  RH  041%=      5-min Rain = 0
KEN1 201607Z 20014KT 29/15 A3017 RMK A01 T02940151  RH  042%=      5-min Rain = 0
KEN1 201608Z 21013KT 29/15 A3017 RMK A01 T02930150  RH  042%=      5-min Rain = 0
KEN1 201609Z 21012KT 29/15 A3017 RMK A01 T02920151  RH  042%=      5-min Rain = 0
KEN1 201610Z 22011KT 29/15 A3017 RMK A01 T02910151  RH  042%=      5-min Rain = 0
KEN1 201611Z 22011KT 29/15 A3017 RMK A01 T02920150  RH  042%=      5-min Rain = 0
KEN1 201612Z 22012KT 29/15 A3017 RMK A01 T02910150  RH  042%=      5-min Rain = 0
KEN1 201613Z 22012KT 29/15 A3017 RMK A01 T02910150  RH  042%=      5-min Rain = 0
KEN1 201614Z 22011KT 29/15 A3017 RMK A01 T02920150  RH  042%=      5-min Rain = 0
KEN1 201615Z 21010KT 29/15 A3017 RMK A01 T02940152  RH  042%=      5-min Rain = 0
KEN1 201616Z 21011KT 30/15 A3017 RMK A01 T02980153  RH  042%=      5-min Rain = 0
KEN1 201617Z 21013KT 30/15 A3017 RMK A01 T03020151  RH  040%=      5-min Rain = 0
KEN1 201618Z 21013KT 30/15 A3017 RMK A01 T03030151  RH  040%=      5-min Rain = 0
KEN1 201619Z 22011KT 30/15 A3017 RMK A01 T03020151  RH  040%=      5-min Rain = 0
KEN1 201620Z 22010KT 30/15 A3017 RMK A01 T03040154  RH  040%=      5-min Rain = 0
KEN1 201621Z 22013KT 31/15 A3017 RMK A01 T03100154  RH  039%=      5-min Rain = 0
KEN1 201622Z 19011KT 31/15 A3017 RMK A01 T03120154  RH  038%=      5-min Rain = 0
KEN1 201623Z 20011KT 32/15 A3017 RMK A01 T03150154  RH  038%=      5-min Rain = 0
KEN1 201624Z 20011KT 32/15 A3017 RMK A01 T03160153  RH  037%=      5-min Rain = 0
KEN1 201625Z 20013KT 32/15 A3017 RMK A01 T03160153  RH  037%=      5-min Rain = 0
KEN1 201626Z 20013KT 31/15 A3017 RMK A01 T03140150  RH  037%=      5-min Rain = 0
KEN1 201627Z 21012KT 31/15 A3017 RMK A01 T03110151  RH  038%=      5-min Rain = 0
KEN1 201628Z 21012KT 31/15 A3017 RMK A01 T03090151  RH  038%=      5-min Rain = 0
KEN1 201629Z 19012KT 31/15 A3017 RMK A01 T03100152  RH  038%=      5-min Rain = 0
KEN1 201630Z 21011KT 31/15 A3017 RMK A01 T03120152  RH  038%=      5-min Rain = 0
KEN1 201631Z 21011KT 31/15 A3017 RMK A01 T03130152  RH  038%=      5-min Rain = 0
KEN1 201632Z 20017KT 31/15 A3017 RMK A01 T03140150  RH  037%=      5-min Rain = 0
KEN1 201633Z 21015KT 31/15 A3017 RMK A01 T03140149  RH  037%=      5-min Rain = 0
KEN1 201634Z 21013KT 31/15 A3017 RMK A01 T03130150  RH  037%=      5-min Rain = 0
KEN1 201635Z 21013KT 31/15 A3017 RMK A01 T03120150  RH  037%=      5-min Rain = 0
KEN1 201636Z 20012KT 31/15 A3017 RMK A01 T03120150  RH  038%=      5-min Rain = 0
KEN1 201637Z 22013KT 31/15 A3017 RMK A01 T03140150  RH  037%=      5-min Rain = 0
KEN1 201638Z 21012KT 31/15 A3017 RMK A01 T03140152  RH  038%=      5-min Rain = 0
KEN1 201639Z 20014KT 32/15 A3017 RMK A01 T03160149  RH  037%=      5-min Rain = 0
KEN1 201640Z 21014KT 32/15 A3017 RMK A01 T03150149  RH  037%=      5-min Rain = 0
KEN1 201641Z 20013KT 31/15 A3017 RMK A01 T03140150  RH  037%=      5-min Rain = 0
KEN1 201642Z 21012KT 32/15 A3017 RMK A01 T03150150  RH  037%=      5-min Rain = 0
KEN1 201643Z 20010KT 32/15 A3017 RMK A01 T03170152  RH  037%=      5-min Rain = 0
KEN1 201644Z 17011KT 32/15 A3017 RMK A01 T03190148  RH  036%=      5-min Rain = 0
KEN1 201645Z 19010KT 32/15 A3017 RMK A01 T03200151  RH  036%=      5-min Rain = 0
KEN1 201646Z 21010KT 32/15 A3017 RMK A01 T03230154  RH  036%=      5-min Rain = 0
KEN1 201647Z 22009KT 33/15 A3017 RMK A01 T03250152  RH  035%=      5-min Rain = 0
KEN1 201648Z 22010KT 32/15 A3017 RMK A01 T03210152  RH  036%=      5-min Rain = 0
KEN1 201649Z 21014KT 32/15 A3017 RMK A01 T03210151  RH  036%=      5-min Rain = 0
KEN1 201650Z 18012KT 32/15 A3017 RMK A01 T03210148  RH  035%=      5-min Rain = 0
KEN1 201651Z 17009KT 32/15 A3017 RMK A01 T03180149  RH  036%=      5-min Rain = 0
KEN1 201652Z 17009KT 32/15 A3017 RMK A01 T03180148  RH  036%=      5-min Rain = 0
KEN1 201653Z 18012KT 32/15 A3017 RMK A01 T03180150  RH  036%=      5-min Rain = 0
KEN1 201654Z 20010KT 32/15 A3017 RMK A01 T03190152  RH  036%=      5-min Rain = 0
KEN1 201655Z 21010KT 32/15 A3017 RMK A01 T03210153  RH  036%=      5-min Rain = 0
KEN1 201656Z 18011KT 32/15 A3017 RMK A01 T03230153  RH  036%=      5-min Rain = 0
KEN1 201657Z 17012KT 32/15 A3017 RMK A01 T03240151  RH  035%=      5-min Rain = 0
KEN1 201658Z 19013KT 32/15 A3016 RMK A01 T03230151  RH  035%=      5-min Rain = 0
KEN1 201659Z 20013KT 32/15 A3016 RMK A01 T03240148  RH  035%=      5-min Rain = 0
KEN1 201700Z 20012KT 32/15 A3016 RMK A01 T03240150  RH  035%=      5-min Rain = 0
KEN1 201701Z 20012KT 32/15 A3016 RMK A01 T03240151  RH  035%=      5-min Rain = 0
KEN1 201702Z 21012G18KT 32/15 A3016 RMK A01 T03220151  RH  036%=      5-min Rain = 0
KEN1 201703Z 21016KT 32/15 A3016 RMK A01 T03230146  RH  034%=      5-min Rain = 0
KEN1 201704Z 20016KT 33/15 A3016 RMK A01 T03250145  RH  034%=      5-min Rain = 0
KEN1 201705Z 19011G16KT 33/15 A3016 RMK A01 T03250146  RH  034%=      5-min Rain = 0
KEN1 201706Z 18013KT 33/15 A3016 RMK A01 T03250148  RH  034%=      5-min Rain = 0
KEN1 201707Z 19013KT 33/15 A3016 RMK A01 T03260145  RH  034%=      5-min Rain = 0
KEN1 201708Z 19010KT 32/14 A3016 RMK A01 T03230144  RH  034%=      5-min Rain = 0
KEN1 201709Z 19011KT 32/15 A3016 RMK A01 T03230145  RH  034%=      5-min Rain = 0
KEN1 201710Z 19013KT 32/14 A3016 RMK A01 T03240144  RH  034%=      5-min Rain = 0
KEN1 201711Z 20012KT 33/15 A3016 RMK A01 T03250147  RH  034%=      5-min Rain = 0
KEN1 201712Z 19010KT 33/15 A3016 RMK A01 T03270147  RH  034%=      5-min Rain = 0
KEN1 201713Z 19016KT 33/15 A3016 RMK A01 T03280147  RH  034%=      5-min Rain = 0
KEN1 201714Z 18016KT 33/14 A3016 RMK A01 T03300144  RH  033%=      5-min Rain = 0
KEN1 201715Z 18014KT 33/14 A3016 RMK A01 T03290143  RH  033%=      5-min Rain = 0
KEN1 201716Z 20015KT 33/14 A3016 RMK A01 T03260141  RH  033%=      5-min Rain = 0
KEN1 201717Z 18014KT 32/14 A3016 RMK A01 T03240142  RH  033%=      5-min Rain = 0
KEN1 201718Z 18014KT 32/14 A3016 RMK A01 T03230139  RH  033%=      5-min Rain = 0
KEN1 201719Z 17015KT 32/14 A3016 RMK A01 T03240139  RH  033%=      5-min Rain = 0
KEN1 201720Z 17011KT 33/14 A3016 RMK A01 T03250139  RH  033%=      5-min Rain = 0
KEN1 201721Z 17015KT 33/14 A3016 RMK A01 T03280141  RH  032%=      5-min Rain = 0
KEN1 201722Z 17015KT 33/14 A3016 RMK A01 T03280140  RH  032%=      5-min Rain = 0
KEN1 201723Z 18013KT 33/14 A3016 RMK A01 T03250141  RH  033%=      5-min Rain = 0
KEN1 201724Z 20012KT 33/14 A3016 RMK A01 T03250140  RH  033%=      5-min Rain = 0
KEN1 201725Z 18013KT 33/14 A3016 RMK A01 T03250139  RH  032%=      5-min Rain = 0
KEN1 201726Z 17014KT 33/14 A3016 RMK A01 T03250136  RH  032%=      5-min Rain = 0
KEN1 201727Z 19016KT 33/13 A3016 RMK A01 T03250133  RH  031%=      5-min Rain = 0
KEN1 201728Z 18015KT 33/13 A3016 RMK A01 T03270134  RH  031%=      5-min Rain = 0
KEN1 201729Z 18011KT 33/13 A3016 RMK A01 T03290134  RH  031%=      5-min Rain = 0
KEN1 201730Z 17015KT 33/14 A3016 RMK A01 T03300136  RH  031%=      5-min Rain = 0
KEN1 201731Z 18015KT 33/13 A3016 RMK A01 T03340134  RH  030%=      5-min Rain = 0
KEN1 201732Z 16015KT 33/14 A3016 RMK A01 T03340135  RH  030%=      5-min Rain = 0
KEN1 201733Z 15012KT 33/14 A3016 RMK A01 T03330137  RH  030%=      5-min Rain = 0
KEN1 201734Z 18016G22KT 34/14 A3016 RMK A01 T03370139  RH  030%=      5-min Rain = 0
KEN1 201735Z 19012KT 34/14 A3016 RMK A01 T03400135  RH  029%=      5-min Rain = 0
KEN1 201736Z 19014KT 34/13 A3016 RMK A01 T03390133  RH  029%=      5-min Rain = 0
KEN1 201737Z 21015G20KT 34/13 A3015 RMK A01 T03400133  RH  029%=      5-min Rain = 0
KEN1 201738Z 20017KT 34/13 A3015 RMK A01 T03430131  RH  028%=      5-min Rain = 0
KEN1 201739Z 20015KT 34/13 A3015 RMK A01 T03420126  RH  027%=      5-min Rain = 0
KEN1 201740Z 18014G19KT 34/13 A3015 RMK A01 T03410130  RH  028%=      5-min Rain = 0
KEN1 201741Z 19016KT 34/13 A3015 RMK A01 T03430126  RH  027%=      5-min Rain = 0
KEN1 201742Z 18016KT 34/13 A3015 RMK A01 T03440130  RH  027%=      5-min Rain = 0
KEN1 201743Z 18012KT 35/13 A3015 RMK A01 T03500130  RH  027%=      5-min Rain = 0
KEN1 201744Z 19009G18KT 35/13 A3015 RMK A01 T03510127  RH  026%=      5-min Rain = 0
KEN1 201745Z 19016KT 35/12 A3015 RMK A01 T03480124  RH  026%=      5-min Rain = 0
KEN1 201746Z 19020KT 35/13 A3015 RMK A01 T03450125  RH  026%=      5-min Rain = 0
KEN1 201747Z 20017KT 34/13 A3015 RMK A01 T03440125  RH  027%=      5-min Rain = 0
KEN1 201748Z 19015KT 34/13 A3015 RMK A01 T03420126  RH  027%=      5-min Rain = 0
KEN1 201749Z 19018KT 34/13 A3015 RMK A01 T03440126  RH  027%=      5-min Rain = 0
KEN1 201750Z 19019KT 34/13 A3015 RMK A01 T03430127  RH  027%=      5-min Rain = 0
KEN1 201751Z 18017KT 34/13 A3015 RMK A01 T03420131  RH  028%=      5-min Rain = 0
KEN1 201752Z 18017G23KT 34/13 A3015 RMK A01 T03400128  RH  028%=      5-min Rain = 0
KEN1 201753Z 19018KT 34/13 A3015 RMK A01 T03390127  RH  028%=      5-min Rain = 0
KEN1 201754Z 18018KT 34/12 A3015 RMK A01 T03410124  RH  027%=      5-min Rain = 0
KEN1 201755Z 18017KT 34/13 A3015 RMK A01 T03410127  RH  027%=      5-min Rain = 0
KEN1 201756Z 19021KT 34/13 A3015 RMK A01 T03440125  RH  027%=      5-min Rain = 0
KEN1 201757Z 19020KT 34/12 A3015 RMK A01 T03440121  RH  026%=      5-min Rain = 0
KEN1 201758Z 19017KT 34/12 A3015 RMK A01 T03420118  RH  026%=      5-min Rain = 0
KEN1 201759Z 19017KT 34/11 A3015 RMK A01 T03410110  RH  024%=      5-min Rain = 0
KEN1 201800Z 18017KT 34/11 A3015 RMK A01 T03440109  RH  024%=      5-min Rain = 0
KEN1 201801Z 17016G21KT 35/11 A3015 RMK A01 T03460110  RH  024%=      5-min Rain = 0
KEN1 201802Z 18018KT 35/10 A3015 RMK A01 T03480103  RH  023%=      5-min Rain = 0
KEN1 201803Z 17018KT 35/11 A3015 RMK A01 T03460111  RH  024%=      5-min Rain = 0
KEN1 201804Z 19016G21KT 35/12 A3015 RMK A01 T03480122  RH  026%=      5-min Rain = 0
KEN1 201805Z 18015KT 35/13 A3015 RMK A01 T03500127  RH  026%=      5-min Rain = 0
KEN1 201806Z 19015KT 35/12 A3015 RMK A01 T03510119  RH  025%=      5-min Rain = 0
KEN1 201807Z 18016KT 35/12 A3015 RMK A01 T03500121  RH  025%=      5-min Rain = 0
KEN1 201808Z 18017KT 35/12 A3014 RMK A01 T03490120  RH  025%=      5-min Rain = 0
KEN1 201809Z 18019KT 35/12 A3014 RMK A01 T03490116  RH  024%=      5-min Rain = 0
KEN1 201810Z 18019KT 35/11 A3014 RMK A01 T03500114  RH  024%=      5-min Rain = 0
KEN1 201811Z 19019KT 35/11 A3014 RMK A01 T03500112  RH  024%=      5-min Rain = 0
KEN1 201812Z 19016KT 35/11 A3014 RMK A01 T03480113  RH  024%=      5-min Rain = 0
KEN1 201813Z 18020KT 35/11 A3014 RMK A01 T03490113  RH  024%=      5-min Rain = 0
KEN1 201814Z 18019KT 35/11 A3014 RMK A01 T03500111  RH  024%=      5-min Rain = 0
KEN1 201815Z 17016KT 35/11 A3014 RMK A01 T03460113  RH  024%=      5-min Rain = 0
KEN1 201816Z 17016G22KT 34/11 A3014 RMK A01 T03430113  RH  025%=      5-min Rain = 0
KEN1 201817Z 17019KT 34/11 A3014 RMK A01 T03420111  RH  025%=      5-min Rain = 0
KEN1 201818Z 17016KT 34/11 A3014 RMK A01 T03420114  RH  025%=      5-min Rain = 0
KEN1 201819Z 18017KT 34/11 A3014 RMK A01 T03420111  RH  025%=      5-min Rain = 0
KEN1 201820Z 17015KT 35/12 A3014 RMK A01 T03450115  RH  025%=      5-min Rain = 0
KEN1 201821Z 18015KT 35/12 A3014 RMK A01 T03460119  RH  025%=      5-min Rain = 0
KEN1 201822Z 18016KT 35/12 A3014 RMK A01 T03520116  RH  024%=      5-min Rain = 0
KEN1 201823Z 19014KT 35/11 A3014 RMK A01 T03500109  RH  023%=      5-min Rain = 0
KEN1 201824Z 18016KT 35/11 A3014 RMK A01 T03520112  RH  023%=      5-min Rain = 0
KEN1 201825Z 19014KT 35/11 A3014 RMK A01 T03530111  RH  023%=      5-min Rain = 0
KEN1 201826Z 20015KT 35/11 A3014 RMK A01 T03540109  RH  023%=      5-min Rain = 0
KEN1 201827Z 18014KT 35/11 A3014 RMK A01 T03510109  RH  023%=      5-min Rain = 0
KEN1 201828Z 18012KT 35/11 A3014 RMK A01 T03490110  RH  023%=      5-min Rain = 0
KEN1 201829Z 17014KT 35/11 A3014 RMK A01 T03520112  RH  023%=      5-min Rain = 0
KEN1 201830Z 17014KT 35/11 A3014 RMK A01 T03540112  RH  023%=      5-min Rain = 0
KEN1 201831Z 18013KT 36/11 A3014 RMK A01 T03550109  RH  022%=      5-min Rain = 0
KEN1 201832Z 19014KT 35/11 A3014 RMK A01 T03540107  RH  022%=      5-min Rain = 0
KEN1 201833Z 19018KT 35/11 A3014 RMK A01 T03530105  RH  022%=      5-min Rain = 0
KEN1 201834Z 16019KT 35/11 A3014 RMK A01 T03530109  RH  023%=      5-min Rain = 0
KEN1 201835Z 16017KT 36/11 A3014 RMK A01 T03560110  RH  023%=      5-min Rain = 0
KEN1 201836Z 16018G23KT 35/11 A3014 RMK A01 T03530109  RH  023%=      5-min Rain = 0
KEN1 201837Z 16017KT 35/11 A3014 RMK A01 T03520108  RH  023%=      5-min Rain = 0
KEN1 201838Z 18013KT 35/11 A3014 RMK A01 T03500110  RH  023%=      5-min Rain = 0
KEN1 201839Z 17013KT 35/11 A3014 RMK A01 T03510109  RH  023%=      5-min Rain = 0
KEN1 201840Z 17013KT 35/11 A3013 RMK A01 T03500108  RH  023%=      5-min Rain = 0
KEN1 201841Z 17015KT 35/11 A3013 RMK A01 T03500108  RH  023%=      5-min Rain = 0
KEN1 201842Z 17018KT 35/11 A3013 RMK A01 T03520108  RH  023%=      5-min Rain = 0
KEN1 201843Z 17019KT 35/11 A3013 RMK A01 T03540107  RH  022%=      5-min Rain = 0
KEN1 201844Z 17018KT 35/11 A3013 RMK A01 T03510106  RH  023%=      5-min Rain = 0
KEN1 201845Z 19015KT 35/11 A3013 RMK A01 T03490110  RH  023%=      5-min Rain = 0
KEN1 201846Z 19013KT 35/11 A3013 RMK A01 T03500114  RH  024%=      5-min Rain = 0
KEN1 201847Z 18012KT 35/11 A3013 RMK A01 T03520113  RH  024%=      5-min Rain = 0
KEN1 201848Z 18015KT 35/11 A3013 RMK A01 T03510107  RH  023%=      5-min Rain = 0
KEN1 201849Z 18015KT 36/11 A3013 RMK A01 T03550106  RH  022%=      5-min Rain = 0
KEN1 201850Z 19015KT 36/11 A3013 RMK A01 T03570108  RH  022%=      5-min Rain = 0
KEN1 201851Z 18015G20KT 36/11 A3013 RMK A01 T03560108  RH  022%=      5-min Rain = 0
KEN1 201852Z 18018G24KT 36/11 A3013 RMK A01 T03560106  RH  022%=      5-min Rain = 0
KEN1 201853Z 18019KT 36/10 A3013 RMK A01 T03560104  RH  022%=      5-min Rain = 0
KEN1 201854Z 18019KT 35/10 A3013 RMK A01 T03540103  RH  022%=      5-min Rain = 0
KEN1 201855Z 18017KT 35/10 A3013 RMK A01 T03500103  RH  022%=      5-min Rain = 0
KEN1 201856Z 18015KT 35/10 A3013 RMK A01 T03500103  RH  022%=      5-min Rain = 0
KEN1 201857Z 18019KT 35/10 A3013 RMK A01 T03530101  RH  022%=      5-min Rain = 0
KEN1 201858Z 17016G21KT 35/10 A3013 RMK A01 T03540100  RH  021%=      5-min Rain = 0
KEN1 201859Z 19017KT 35/10 A3013 RMK A01 T03540100  RH  021%=      5-min Rain = 0
KEN1 201900Z 19017KT 35/10 A3013 RMK A01 T03540099  RH  021%=      5-min Rain = 0
KEN1 201901Z 19014KT 35/10 A3013 RMK A01 T03530102  RH  022%=      5-min Rain = 0
KEN1 201902Z 19015KT 35/11 A3012 RMK A01 T03520106  RH  022%=      5-min Rain = 0
KEN1 201903Z 16016KT 36/11 A3013 RMK A01 T03580109  RH  022%=      5-min Rain = 0
KEN1 201904Z 17015KT 36/11 A3013 RMK A01 T03630109  RH  022%=      5-min Rain = 0
KEN1 201905Z 18015KT 37/11 A3013 RMK A01 T03660107  RH  021%=      5-min Rain = 0
KEN1 201906Z 18014G20KT 36/10 A3013 RMK A01 T03640104  RH  021%=      5-min Rain = 0
KEN1 201907Z 17018KT 36/09 A3013 RMK A01 T03600093  RH  020%=      5-min Rain = 0
KEN1 201908Z 16014KT 36/10 A3012 RMK A01 T03560101  RH  021%=      5-min Rain = 0
KEN1 201909Z 18015G20KT 36/11 A3013 RMK A01 T03570108  RH  022%=      5-min Rain = 0
KEN1 201910Z 18018KT 36/10 A3012 RMK A01 T03580099  RH  021%=      5-min Rain = 0
KEN1 201911Z 18018G23KT 36/10 A3012 RMK A01 T03570100  RH  021%=      5-min Rain = 0
KEN1 201912Z 18018KT 36/10 A3012 RMK A01 T03590101  RH  021%=      5-min Rain = 0
KEN1 201913Z 18017KT 36/11 A3012 RMK A01 T03560105  RH  022%=      5-min Rain = 0
KEN1 201914Z 16016KT 36/11 A3012 RMK A01 T03580109  RH  022%=      5-min Rain = 0
KEN1 201915Z 17012KT 36/11 A3012 RMK A01 T03560113  RH  023%=      5-min Rain = 0
KEN1 201916Z 19015KT 36/11 A3012 RMK A01 T03570110  RH  022%=      5-min Rain = 0
KEN1 201917Z 18019KT 36/10 A3012 RMK A01 T03610098  RH  020%=      5-min Rain = 0
KEN1 201918Z 18016KT 36/10 A3012 RMK A01 T03570098  RH  021%=      5-min Rain = 0
KEN1 201919Z 19015KT 35/10 A3012 RMK A01 T03540095  RH  021%=      5-min Rain = 0
KEN1 201920Z 18011KT 36/10 A3012 RMK A01 T03550098  RH  021%=      5-min Rain = 0
KEN1 201921Z 18019KT 36/10 A3012 RMK A01 T03590100  RH  021%=      5-min Rain = 0
KEN1 201922Z 18017KT 36/09 A3012 RMK A01 T03610090  RH  019%=      5-min Rain = 0
KEN1 201923Z 18018KT 36/10 A3012 RMK A01 T03590096  RH  020%=      5-min Rain = 0
KEN1 201924Z 17015KT 36/10 A3012 RMK A01 T03580100  RH  021%=      5-min Rain = 0
KEN1 201925Z 17012KT 36/10 A3012 RMK A01 T03570099  RH  021%=      5-min Rain = 0
KEN1 201926Z 19017KT 36/10 A3012 RMK A01 T03570099  RH  021%=      5-min Rain = 0
KEN1 201927Z 19012KT 36/10 A3012 RMK A01 T03590096  RH  020%=      5-min Rain = 0
KEN1 201928Z 17013KT 36/10 A3012 RMK A01 T03610099  RH  020%=      5-min Rain = 0
KEN1 201929Z 17015KT 36/09 A3012 RMK A01 T03640093  RH  019%=      5-min Rain = 0
KEN1 201930Z 17018KT 36/09 A3012 RMK A01 T03630091  RH  019%=      5-min Rain = 0
KEN1 201931Z 16016KT 36/10 A3012 RMK A01 T03590095  RH  020%=      5-min Rain = 0
KEN1 201932Z 18018KT 36/10 A3012 RMK A01 T03590099  RH  021%=      5-min Rain = 0
KEN1 201933Z 18015KT 36/10 A3012 RMK A01 T03590098  RH  020%=      5-min Rain = 0
KEN1 201934Z 18019KT 36/10 A3012 RMK A01 T03590099  RH  021%=      5-min Rain = 0
KEN1 201935Z 18015KT 36/10 A3012 RMK A01 T03590100  RH  021%=      5-min Rain = 0
KEN1 201936Z 17015KT 36/10 A3012 RMK A01 T03590102  RH  021%=      5-min Rain = 0
KEN1 201937Z 16015KT 36/10 A3012 RMK A01 T03620100  RH  020%=      5-min Rain = 0
KEN1 201938Z 17015KT 36/10 A3012 RMK A01 T03600100  RH  021%=      5-min Rain = 0
KEN1 201939Z 18015KT 36/10 A3012 RMK A01 T03580103  RH  021%=      5-min Rain = 0
KEN1 201940Z 18015KT 36/10 A3011 RMK A01 T03610102  RH  021%=      5-min Rain = 0
KEN1 201941Z 17016KT 36/10 A3011 RMK A01 T03610101  RH  021%=      5-min Rain = 0
KEN1 201942Z 16016KT 36/10 A3011 RMK A01 T03600099  RH  020%=      5-min Rain = 0
KEN1 201943Z 16018KT 36/10 A3011 RMK A01 T03600103  RH  021%=      5-min Rain = 0
KEN1 201944Z 16018KT 36/10 A3011 RMK A01 T03620104  RH  021%=      5-min Rain = 0
KEN1 201945Z 17016KT 36/10 A3011 RMK A01 T03600104  RH  021%=      5-min Rain = 0
KEN1 201946Z 17015KT 36/11 A3011 RMK A01 T03600106  RH  022%=      5-min Rain = 0
KEN1 201947Z 17016KT 36/11 A3011 RMK A01 T03580111  RH  022%=      5-min Rain = 0
KEN1 201948Z 17016KT 36/11 A3011 RMK A01 T03600114  RH  023%=      5-min Rain = 0
KEN1 201949Z 18020KT 36/11 A3011 RMK A01 T03600105  RH  021%=      5-min Rain = 0
KEN1 201950Z 19017KT 36/10 A3011 RMK A01 T03590097  RH  020%=      5-min Rain = 0
KEN1 201951Z 20015KT 36/10 A3011 RMK A01 T03590095  RH  020%=      5-min Rain = 0
KEN1 201952Z 20015KT 36/10 A3011 RMK A01 T03610097  RH  020%=      5-min Rain = 0
KEN1 201953Z 18019G24KT 36/10 A3011 RMK A01 T03640096  RH  020%=      5-min Rain = 0
KEN1 201954Z 18019KT 36/09 A3011 RMK A01 T03630089  RH  019%=      5-min Rain = 0
KEN1 201955Z 18014G19KT 36/09 A3011 RMK A01 T03620090  RH  019%=      5-min Rain = 0
KEN1 201956Z 19015KT 36/10 A3011 RMK A01 T03620101  RH  021%=      5-min Rain = 0
KEN1 201957Z 20014KT 36/10 A3011 RMK A01 T03630104  RH  021%=      5-min Rain = 0
KEN1 201958Z 20013G19KT 36/11 A3011 RMK A01 T03630107  RH  021%=      5-min Rain = 0
KEN1 201959Z 19018KT 37/10 A3011 RMK A01 T03650098  RH  020%=      5-min Rain = 0
KEN1 202000Z 19017KT 37/10 A3011 RMK A01 T03650100  RH  020%=      5-min Rain = 0
KEN1 202001Z 20017KT 36/10 A3011 RMK A01 T03640101  RH  020%=      5-min Rain = 0
KEN1 202002Z 20015KT 36/10 A3011 RMK A01 T03610103  RH  021%=      5-min Rain = 0
KEN1 202003Z 19018KT 36/11 A3011 RMK A01 T03600106  RH  021%=      5-min Rain = 0
KEN1 202004Z 19016KT 36/10 A3011 RMK A01 T03610104  RH  021%=      5-min Rain = 0
KEN1 202005Z 19014KT 36/10 A301 RMK A01 T03600102  RH  021%=      5-min Rain = 0
KEN1 202006Z 19017KT 36/10 A301 RMK A01 T03630104  RH  021%=      5-min Rain = 0
KEN1 202007Z 20017KT 37/10 A301 RMK A01 T03650102  RH  020%=      5-min Rain = 0
KEN1 202008Z 20015KT 36/10 A301 RMK A01 T03630101  RH  020%=      5-min Rain = 0
KEN1 202009Z 19013KT 36/10 A301 RMK A01 T03630104  RH  021%=      5-min Rain = 0
KEN1 202010Z 17012KT 36/10 A301 RMK A01 T03610103  RH  021%=      5-min Rain = 0
KEN1 202011Z 18017KT 36/11 A301 RMK A01 T03630108  RH  021%=      5-min Rain = 0
KEN1 202012Z 18017KT 37/10 A301 RMK A01 T03670104  RH  020%=      5-min Rain = 0
KEN1 202013Z 18014KT 37/10 A301 RMK A01 T03660104  RH  021%=      5-min Rain = 0
KEN1 202014Z 19011KT 37/10 A301 RMK A01 T03650103  RH  021%=      5-min Rain = 0
KEN1 202015Z 19011G16KT 37/10 A301 RMK A01 T03650102  RH  020%=      5-min Rain = 0
KEN1 202016Z 20017KT 37/10 A301 RMK A01 T03660102  RH  020%=      5-min Rain = 0
KEN1 202017Z 19016KT 37/11 A301 RMK A01 T03660108  RH  021%=      5-min Rain = 0
KEN1 202018Z 20016KT 37/11 A301 RMK A01 T03650109  RH  021%=      5-min Rain = 0
KEN1 202019Z 21019KT 36/10 A301 RMK A01 T03640101  RH  020%=      5-min Rain = 0
KEN1 202020Z 20019KT 36/10 A301 RMK A01 T03630098  RH  020%=      5-min Rain = 0
KEN1 202021Z 20016KT 36/10 A301 RMK A01 T03620099  RH  020%=      5-min Rain = 0
KEN1 202022Z 21015KT 36/11 A301 RMK A01 T03610106  RH  021%=      5-min Rain = 0
KEN1 202023Z 21016KT 36/11 A301 RMK A01 T03600110  RH  022%=      5-min Rain = 0
KEN1 202024Z 21016KT 36/11 A301 RMK A01 T03610114  RH  023%=      5-min Rain = 0
KEN1 202025Z 20013KT 36/12 A301 RMK A01 T03610116  RH  023%=      5-min Rain = 0
KEN1 202026Z 18017KT 36/11 A301 RMK A01 T03620114  RH  022%=      5-min Rain = 0
KEN1 202027Z 18018G24KT 36/10 A301 RMK A01 T03640103  RH  021%=      5-min Rain = 0
KEN1 202028Z 18016KT 37/11 A301 RMK A01 T03660105  RH  021%=      5-min Rain = 0
KEN1 202029Z 18012KT 37/11 A301 RMK A01 T03670106  RH  021%=      5-min Rain = 0
KEN1 202030Z 18019G24KT 37/11 A3009 RMK A01 T03660108  RH  021%=      5-min Rain = 0
KEN1 202031Z 17018KT 37/11 A3009 RMK A01 T03660110  RH  021%=      5-min Rain = 0
KEN1 202032Z 17015KT 37/11 A3009 RMK A01 T03670110  RH  021%=      5-min Rain = 0
KEN1 202033Z 18017KT 37/11 A3009 RMK A01 T03680110  RH  021%=      5-min Rain = 0
KEN1 202034Z 20014KT 37/11 A3009 RMK A01 T03660111  RH  021%=      5-min Rain = 0
KEN1 202035Z 20014KT 36/11 A3009 RMK A01 T03640110  RH  022%=      5-min Rain = 0
KEN1 202036Z 20018KT 37/11 A3009 RMK A01 T03660108  RH  021%=      5-min Rain = 0
KEN1 202037Z 20019KT 37/10 A3009 RMK A01 T03680101  RH  020%=      5-min Rain = 0
KEN1 202038Z 20015KT 37/09 A3009 RMK A01 T03650087  RH  018%=      5-min Rain = 0
KEN1 202039Z 19015KT 36/10 A3009 RMK A01 T03630098  RH  020%=      5-min Rain = 0
KEN1 202040Z 20013KT 36/10 A3009 RMK A01 T03630102  RH  021%=      5-min Rain = 0
KEN1 202041Z 20017G23KT 37/11 A3009 RMK A01 T03660108  RH  021%=      5-min Rain = 0
KEN1 202042Z 20016KT 37/11 A3009 RMK A01 T03690107  RH  021%=      5-min Rain = 0
KEN1 202043Z 20014KT 37/10 A3009 RMK A01 T03690100  RH  020%=      5-min Rain = 0
KEN1 202044Z 20016KT 37/10 A3008 RMK A01 T03670095  RH  019%=      5-min Rain = 0
KEN1 202045Z 19015KT 37/10 A3008 RMK A01 T03660104  RH  020%=      5-min Rain = 0
KEN1 202046Z 18015G20KT 37/11 A3009 RMK A01 T03680110  RH  021%=      5-min Rain = 0
KEN1 202047Z 18017KT 37/11 A3008 RMK A01 T03690107  RH  021%=      5-min Rain = 0
KEN1 202048Z 18017KT 36/11 A3008 RMK A01 T03640109  RH  021%=      5-min Rain = 0
KEN1 202049Z 18021KT 37/09 A3008 RMK A01 T03660090  RH  019%=      5-min Rain = 0
KEN1 202050Z 18017KT 37/09 A3008 RMK A01 T03680088  RH  018%=      5-min Rain = 0
KEN1 202051Z 19018KT 37/09 A3008 RMK A01 T03670094  RH  019%=      5-min Rain = 0
KEN1 202052Z 19020KT 37/09 A3008 RMK A01 T03660092  RH  019%=      5-min Rain = 0
KEN1 202053Z 20018KT 37/09 A3008 RMK A01 T03650091  RH  019%=      5-min Rain = 0
KEN1 202054Z 20017KT 36/09 A3008 RMK A01 T03630093  RH  019%=      5-min Rain = 0
KEN1 202055Z 19014KT 36/10 A3008 RMK A01 T03630100  RH  020%=      5-min Rain = 0
KEN1 202056Z 18018KT 36/11 A3008 RMK A01 T03640107  RH  021%=      5-min Rain = 0
KEN1 202057Z 18017KT 37/11 A3008 RMK A01 T03670108  RH  021%=      5-min Rain = 0
KEN1 202058Z 19013KT 37/10 A3008 RMK A01 T03650104  RH  021%=      5-min Rain = 0
KEN1 202059Z 19012KT 37/10 A3008 RMK A01 T03660100  RH  020%=      5-min Rain = 0
KEN1 202100Z 19018G23KT 37/10 A3008 RMK A01 T03670103  RH  020%=      5-min Rain = 0
KEN1 202101Z 19016KT 37/10 A3008 RMK A01 T03690102  RH  020%=      5-min Rain = 0
KEN1 202102Z 19019KT 37/10 A3008 RMK A01 T03680095  RH  019%=      5-min Rain = 0
KEN1 202103Z 19015KT 37/09 A3008 RMK A01 T03680089  RH  018%=      5-min Rain = 0
KEN1 202104Z 20013KT 37/09 A3007 RMK A01 T03680092  RH  019%=      5-min Rain = 0
KEN1 202105Z 19015KT 37/10 A3007 RMK A01 T03670096  RH  019%=      5-min Rain = 0
KEN1 202106Z 19014KT 37/10 A3007 RMK A01 T03680103  RH  020%=      5-min Rain = 0
KEN1 202107Z 17014KT 37/10 A3007 RMK A01 T03710099  RH  019%=      5-min Rain = 0
KEN1 202108Z 16018G26KT 37/09 A3007 RMK A01 T03730091  RH  018%=      5-min Rain = 0
KEN1 202109Z 18019KT 37/09 A3007 RMK A01 T03730091  RH  018%=      5-min Rain = 0
KEN1 202110Z 18016KT 37/10 A3007 RMK A01 T03730096  RH  019%=      5-min Rain = 0
KEN1 202111Z 19015KT 37/10 A3007 RMK A01 T03710099  RH  019%=      5-min Rain = 0
KEN1 202112Z 19016G21KT 37/09 A3007 RMK A01 T03720094  RH  019%=      5-min Rain = 0
KEN1 202113Z 19015KT 37/09 A3007 RMK A01 T03690090  RH  018%=      5-min Rain = 0
KEN1 202114Z 18014G19KT 37/09 A3007 RMK A01 T03660090  RH  019%=      5-min Rain = 0
KEN1 202115Z 17018KT 37/08 A3007 RMK A01 T03680083  RH  018%=      5-min Rain = 0
KEN1 202116Z 17019KT 37/07 A3007 RMK A01 T03730074  RH  016%=      5-min Rain = 0
KEN1 202117Z 18018KT 37/07 A3007 RMK A01 T03740070  RH  016%=      5-min Rain = 0
KEN1 202118Z 17020KT 37/07 A3007 RMK A01 T03710070  RH  016%=      5-min Rain = 0
KEN1 202119Z 17019KT 37/07 A3007 RMK A01 T03690068  RH  016%=      5-min Rain = 0
KEN1 202120Z 18014KT 37/07 A3007 RMK A01 T03680068  RH  016%=      5-min Rain = 0
KEN1 202121Z 17015KT 37/08 A3007 RMK A01 T03700079  RH  017%=      5-min Rain = 0
KEN1 202122Z 17014KT 37/08 A3007 RMK A01 T03700079  RH  017%=      5-min Rain = 0
KEN1 202123Z 17013KT 37/08 A3006 RMK A01 T03670084  RH  018%=      5-min Rain = 0
KEN1 202124Z 19014KT 37/09 A3006 RMK A01 T03670087  RH  018%=      5-min Rain = 0
KEN1 202125Z 18018G23KT 37/09 A3006 RMK A01 T03700094  RH  019%=      5-min Rain = 0
KEN1 202126Z 17020KT 37/09 A3006 RMK A01 T03720091  RH  018%=      5-min Rain = 0
KEN1 202127Z 18015KT 37/09 A3006 RMK A01 T03700088  RH  018%=      5-min Rain = 0
KEN1 202128Z 17016KT 37/09 A3006 RMK A01 T03690088  RH  018%=      5-min Rain = 0
KEN1 202129Z 18020G25KT 37/08 A3006 RMK A01 T03710081  RH  017%=      5-min Rain = 0
KEN1 202130Z 19021KT 37/08 A3006 RMK A01 T03720078  RH  017%=      5-min Rain = 0
KEN1 202131Z 20016KT 37/08 A3006 RMK A01 T03690084  RH  018%=      5-min Rain = 0
KEN1 202132Z 18017KT 37/09 A3006 RMK A01 T03700085  RH  018%=      5-min Rain = 0
KEN1 202133Z 19020KT 37/09 A3006 RMK A01 T03710087  RH  018%=      5-min Rain = 0
KEN1 202134Z 18014KT 37/09 A3006 RMK A01 T03680087  RH  018%=      5-min Rain = 0
KEN1 202135Z 16012KT 37/09 A3006 RMK A01 T03660089  RH  019%=      5-min Rain = 0
KEN1 202136Z 17015KT 37/09 A3006 RMK A01 T03690090  RH  018%=      5-min Rain = 0
KEN1 202137Z 17016KT 37/09 A3006 RMK A01 T03740087  RH  018%=      5-min Rain = 0
KEN1 202138Z 18018KT 38/08 A3006 RMK A01 T03750084  RH  017%=      5-min Rain = 0
KEN1 202139Z 18018KT 37/08 A3006 RMK A01 T03720084  RH  017%=      5-min Rain = 0
KEN1 202140Z 19015KT 37/09 A3006 RMK A01 T03690086  RH  018%=      5-min Rain = 0
KEN1 202141Z 20014KT 37/09 A3005 RMK A01 T03700091  RH  018%=      5-min Rain = 0
KEN1 202142Z 20015KT 37/09 A3005 RMK A01 T03730090  RH  018%=      5-min Rain = 0
KEN1 202143Z 18014KT 37/09 A3005 RMK A01 T03720090  RH  018%=      5-min Rain = 0
KEN1 202144Z 18016KT 37/09 A3005 RMK A01 T03730091  RH  018%=      5-min Rain = 0
KEN1 202145Z 16020G25KT 37/09 A3005 RMK A01 T03730089  RH  018%=      5-min Rain = 0
KEN1 202146Z 16017KT 37/09 A3005 RMK A01 T03720086  RH  018%=      5-min Rain = 0
KEN1 202147Z 16018KT 37/09 A3005 RMK A01 T03720086  RH  018%=      5-min Rain = 0
KEN1 202148Z 18018KT 37/08 A3005 RMK A01 T03710084  RH  017%=      5-min Rain = 0
KEN1 202149Z 17017KT 37/08 A3005 RMK A01 T03710084  RH  017%=      5-min Rain = 0
KEN1 202150Z 16017KT 37/08 A3005 RMK A01 T03710084  RH  017%=      5-min Rain = 0
KEN1 202151Z 16018KT 37/08 A3005 RMK A01 T03720084  RH  017%=      5-min Rain = 0
KEN1 202152Z 17014KT 37/08 A3005 RMK A01 T03710084  RH  017%=      5-min Rain = 0
KEN1 202153Z 18017KT 37/08 A3005 RMK A01 T03720080  RH  017%=      5-min Rain = 0
KEN1 202154Z 17018KT 37/08 A3005 RMK A01 T03720082  RH  017%=      5-min Rain = 0
KEN1 202155Z 17019KT 37/08 A3005 RMK A01 T03730081  RH  017%=      5-min Rain = 0
KEN1 202156Z 17016KT 37/08 A3005 RMK A01 T03700080  RH  017%=      5-min Rain = 0
KEN1 202157Z 17016KT 37/08 A3005 RMK A01 T03700079  RH  017%=      5-min Rain = 0
KEN1 202158Z 17015G20KT 37/08 A3005 RMK A01 T03700082  RH  017%=      5-min Rain = 0
KEN1 202159Z 17017KT 37/09 A3005 RMK A01 T03710085  RH  018%=      5-min Rain = 0
KEN1 202200Z 17019KT 37/08 A3005 RMK A01 T03720082  RH  017%=      5-min Rain = 0
KEN1 202201Z 17018KT 37/08 A3005 RMK A01 T03730078  RH  017%=      5-min Rain = 0
KEN1 202202Z 18015G20KT 37/08 A3005 RMK A01 T03730075  RH  016%=      5-min Rain = 0
KEN1 202203Z 18019KT 37/07 A3005 RMK A01 T03740072  RH  016%=      5-min Rain = 0
KEN1 202204Z 17015KT 37/08 A3005 RMK A01 T03740075  RH  016%=      5-min Rain = 0
KEN1 202205Z 18013KT 37/09 A3005 RMK A01 T03720086  RH  018%=      5-min Rain = 0
KEN1 202206Z 19017KT 38/09 A3005 RMK A01 T03750088  RH  018%=      5-min Rain = 0
KEN1 202207Z 18014KT 37/09 A3005 RMK A01 T03740087  RH  018%=      5-min Rain = 0
KEN1 202208Z 17014KT 37/09 A3005 RMK A01 T03730090  RH  018%=      5-min Rain = 0
KEN1 202209Z 18015KT 37/09 A3005 RMK A01 T03730093  RH  018%=      5-min Rain = 0
KEN1 202210Z 17017KT 37/09 A3005 RMK A01 T03720092  RH  018%=      5-min Rain = 0
KEN1 202211Z 18015KT 37/09 A3005 RMK A01 T03710092  RH  018%=      5-min Rain = 0
KEN1 202212Z 18014KT 37/09 A3005 RMK A01 T03700093  RH  019%=      5-min Rain = 0
KEN1 202213Z 18011KT 37/10 A3005 RMK A01 T03690095  RH  019%=      5-min Rain = 0
KEN1 202214Z 17014KT 37/10 A3005 RMK A01 T03710096  RH  019%=      5-min Rain = 0
KEN1 202215Z 18013KT 37/09 A3005 RMK A01 T03710093  RH  019%=      5-min Rain = 0
KEN1 202216Z 17013G18KT 37/10 A3005 RMK A01 T03710096  RH  019%=      5-min Rain = 0
KEN1 202217Z 16017KT 37/09 A3005 RMK A01 T03730094  RH  019%=      5-min Rain = 0
KEN1 202218Z 16016G21KT 37/10 A3005 RMK A01 T03720095  RH  019%=      5-min Rain = 0
KEN1 202219Z 17019KT 37/10 A3005 RMK A01 T03710095  RH  019%=      5-min Rain = 0
KEN1 202220Z 16018G23KT 37/09 A3005 RMK A01 T03710094  RH  019%=      5-min Rain = 0
KEN1 202221Z 18017KT 37/10 A3005 RMK A01 T03700095  RH  019%=      5-min Rain = 0
KEN1 202222Z 18017KT 37/10 A3005 RMK A01 T03700097  RH  019%=      5-min Rain = 0
KEN1 202223Z 18017KT 37/10 A3005 RMK A01 T03700101  RH  020%=      5-min Rain = 0
KEN1 202224Z 18011KT 37/10 A3005 RMK A01 T03690102  RH  020%=      5-min Rain = 0
KEN1 202225Z 18010KT 37/10 A3005 RMK A01 T03670103  RH  020%=      5-min Rain = 0
KEN1 202226Z 18011KT 37/10 A3005 RMK A01 T03670102  RH  020%=      5-min Rain = 0
KEN1 202227Z 17013KT 37/10 A3006 RMK A01 T03670101  RH  020%=      5-min Rain = 0
KEN1 202228Z 17015KT 37/10 A3006 RMK A01 T03660100  RH  020%=      5-min Rain = 0
KEN1 202229Z 18016KT 37/10 A3006 RMK A01 T03650102  RH  020%=      5-min Rain = 0
KEN1 202230Z 17014KT 37/10 A3006 RMK A01 T03650104  RH  021%=      5-min Rain = 0
KEN1 202231Z 18015G21KT 37/10 A3006 RMK A01 T03650102  RH  020%=      5-min Rain = 0
KEN1 202232Z 18018KT 36/10 A3006 RMK A01 T03640103  RH  021%=      5-min Rain = 0
KEN1 202233Z 19017KT 36/10 A3006 RMK A01 T03640102  RH  021%=      5-min Rain = 0
KEN1 202234Z 20012KT 36/10 A3006 RMK A01 T03630102  RH  021%=      5-min Rain = 0
KEN1 202235Z 18016KT 36/10 A3006 RMK A01 T03630101  RH  020%=      5-min Rain = 0
KEN1 202236Z 17014KT 36/10 A3006 RMK A01 T03620098  RH  020%=      5-min Rain = 0
KEN1 202237Z 18012KT 36/10 A3006 RMK A01 T03620097  RH  020%=      5-min Rain = 0
KEN1 202238Z 18016KT 36/10 A3006 RMK A01 T03620098  RH  020%=      5-min Rain = 0
KEN1 202239Z 18016KT 36/10 A3006 RMK A01 T03610099  RH  020%=      5-min Rain = 0
KEN1 202240Z 17015KT 36/10 A3006 RMK A01 T03640101  RH  020%=      5-min Rain = 0
KEN1 202241Z 18013KT 37/10 A3006 RMK A01 T03660102  RH  020%=      5-min Rain = 0
KEN1 202242Z 19015KT 37/10 A3006 RMK A01 T03690104  RH  020%=      5-min Rain = 0
KEN1 202243Z 18015KT 37/10 A3006 RMK A01 T03690103  RH  020%=      5-min Rain = 0
KEN1 202244Z 18014KT 37/10 A3006 RMK A01 T03680103  RH  020%=      5-min Rain = 0
KEN1 202245Z 17015KT 37/10 A3006 RMK A01 T03670102  RH  020%=      5-min Rain = 0
KEN1 202246Z 18018KT 37/10 A3006 RMK A01 T03670103  RH  020%=      5-min Rain = 0
KEN1 202247Z 18019KT 37/10 A3006 RMK A01 T03670103  RH  020%=      5-min Rain = 0
KEN1 202248Z 18016KT 37/10 A3006 RMK A01 T03650100  RH  020%=      5-min Rain = 0
KEN1 202249Z 17012KT 36/10 A3006 RMK A01 T03620100  RH  020%=      5-min Rain = 0
KEN1 202250Z 17010KT 36/10 A3006 RMK A01 T03610101  RH  021%=      5-min Rain = 0
KEN1 202251Z 17011G16KT 36/10 A3006 RMK A01 T03630102  RH  021%=      5-min Rain = 0
KEN1 202252Z 18014KT 37/10 A3006 RMK A01 T03650100  RH  020%=      5-min Rain = 0
KEN1 202253Z 17013KT 37/10 A3006 RMK A01 T03660100  RH  020%=      5-min Rain = 0
KEN1 202254Z 18016KT 37/10 A3006 RMK A01 T03650100  RH  020%=      5-min Rain = 0
KEN1 202255Z 18016G21KT 37/10 A3006 RMK A01 T03650103  RH  020%=      5-min Rain = 0
KEN1 202256Z 17017KT 37/10 A3006 RMK A01 T03650102  RH  020%=      5-min Rain = 0
KEN1 202257Z 17015KT 36/10 A3006 RMK A01 T03630102  RH  021%=      5-min Rain = 0
KEN1 202258Z 17015KT 36/10 A3006 RMK A01 T03610101  RH  021%=      5-min Rain = 0
KEN1 202259Z 17014KT 36/10 A3006 RMK A01 T03600100  RH  021%=      5-min Rain = 0
KEN1 202300Z 16013G18KT 36/10 A3006 RMK A01 T03600100  RH  021%=      5-min Rain = 0
KEN1 202301Z 17019KT 36/10 A3006 RMK A01 T03600096  RH  020%=      5-min Rain = 0
KEN1 202302Z 19019KT 36/09 A3006 RMK A01 T03590091  RH  020%=      5-min Rain = 0
KEN1 202303Z 20017KT 36/09 A3006 RMK A01 T03590088  RH  019%=      5-min Rain = 0
KEN1 202304Z 19016KT 36/09 A3006 RMK A01 T03590087  RH  019%=      5-min Rain = 0
KEN1 202305Z 19015KT 36/09 A3006 RMK A01 T03580085  RH  019%=      5-min Rain = 0
KEN1 202306Z 19012KT 36/09 A3006 RMK A01 T03580085  RH  019%=      5-min Rain = 0
KEN1 202307Z 19013KT 36/09 A3006 RMK A01 T03580086  RH  019%=      5-min Rain = 0
KEN1 202308Z 19014KT 36/09 A3006 RMK A01 T03570087  RH  019%=      5-min Rain = 0
KEN1 202309Z 19011KT 36/09 A3006 RMK A01 T03570089  RH  019%=      5-min Rain = 0
KEN1 202310Z 19012KT 36/09 A3006 RMK A01 T03570090  RH  020%=      5-min Rain = 0
KEN1 202311Z 19010KT 36/09 A3006 RMK A01 T03570089  RH  020%=      5-min Rain = 0
KEN1 202312Z 19009KT 36/09 A3006 RMK A01 T03580091  RH  020%=      5-min Rain = 0
KEN1 202313Z 19009KT 36/09 A3006 RMK A01 T03590091  RH  020%=      5-min Rain = 0
KEN1 202314Z 18008KT 36/09 A3006 RMK A01 T03600094  RH  020%=      5-min Rain = 0
KEN1 202315Z 18009KT 36/09 A3006 RMK A01 T03610094  RH  020%=      5-min Rain = 0
KEN1 202316Z 19012KT 36/09 A3006 RMK A01 T03610093  RH  020%=      5-min Rain = 0
KEN1 202317Z 18013KT 36/10 A3006 RMK A01 T03610095  RH  020%=      5-min Rain = 0
KEN1 202318Z 20014KT 36/10 A3006 RMK A01 T03590095  RH  020%=      5-min Rain = 0
KEN1 202319Z 21012KT 36/09 A3006 RMK A01 T03580094  RH  020%=      5-min Rain = 0
KEN1 202320Z 20013KT 36/09 A3006 RMK A01 T03570093  RH  020%=      5-min Rain = 0
KEN1 202321Z 19013KT 36/10 A3006 RMK A01 T03560095  RH  020%=      5-min Rain = 0
KEN1 202322Z 20012KT 36/09 A3006 RMK A01 T03560094  RH  020%=      5-min Rain = 0
KEN1 202323Z 21014KT 36/09 A3006 RMK A01 T03560092  RH  020%=      5-min Rain = 0
KEN1 202324Z 21014KT 36/09 A3006 RMK A01 T03560092  RH  020%=      5-min Rain = 0
KEN1 202325Z 21014KT 36/09 A3006 RMK A01 T03560088  RH  019%=      5-min Rain = 0
KEN1 202326Z 21014KT 36/09 A3006 RMK A01 T03550087  RH  019%=      5-min Rain = 0
KEN1 202327Z 19012KT 36/09 A3006 RMK A01 T03550090  RH  020%=      5-min Rain = 0
KEN1 202328Z 19012KT 36/09 A3006 RMK A01 T03550091  RH  020%=      5-min Rain = 0
KEN1 202329Z 19015KT 36/09 A3006 RMK A01 T03550090  RH  020%=      5-min Rain = 0
KEN1 202330Z 18015KT 36/09 A3006 RMK A01 T03550089  RH  020%=      5-min Rain = 0
KEN1 202331Z 18015KT 36/09 A3006 RMK A01 T03550088  RH  020%=      5-min Rain = 0
KEN1 202332Z 18012KT 36/09 A3006 RMK A01 T03550090  RH  020%=      5-min Rain = 0
KEN1 202333Z 18011KT 36/09 A3006 RMK A01 T03550091  RH  020%=      5-min Rain = 0
KEN1 202334Z 18012KT 36/09 A3006 RMK A01 T03550090  RH  020%=      5-min Rain = 0
KEN1 202335Z 18012KT 36/08 A3006 RMK A01 T03550084  RH  019%=      5-min Rain = 0
KEN1 202336Z 18011KT 36/08 A3006 RMK A01 T03550084  RH  019%=      5-min Rain = 0
KEN1 202337Z 20011KT 36/09 A3006 RMK A01 T03550085  RH  019%=      5-min Rain = 0
KEN1 202338Z 20012KT 35/09 A3006 RMK A01 T03540085  RH  019%=      5-min Rain = 0
KEN1 202339Z 20014KT 35/08 A3006 RMK A01 T03540084  RH  019%=      5-min Rain = 0
KEN1 202340Z 20015KT 35/08 A3006 RMK A01 T03540082  RH  019%=      5-min Rain = 0
KEN1 202341Z 20016KT 35/08 A3006 RMK A01 T03540081  RH  019%=      5-min Rain = 0
KEN1 202342Z 19012G17KT 35/08 A3006 RMK A01 T03540080  RH  019%=      5-min Rain = 0
KEN1 202343Z 19013KT 35/08 A3006 RMK A01 T03530080  RH  019%=      5-min Rain = 0
KEN1 202344Z 19012KT 35/08 A3006 RMK A01 T03530079  RH  019%=      5-min Rain = 0
KEN1 202345Z 20011KT 35/08 A3006 RMK A01 T03530079  RH  019%=      5-min Rain = 0
KEN1 202346Z 20012KT 35/08 A3006 RMK A01 T03520079  RH  019%=      5-min Rain = 0
KEN1 202347Z 20013KT 35/08 A3006 RMK A01 T03520079  RH  019%=      5-min Rain = 0
KEN1 202348Z 20012KT 35/08 A3006 RMK A01 T03520080  RH  019%=      5-min Rain = 0
KEN1 202349Z 20012KT 35/08 A3006 RMK A01 T03520080  RH  019%=      5-min Rain = 0
KEN1 202350Z 19011KT 35/08 A3006 RMK A01 T03510081  RH  019%=      5-min Rain = 0
KEN1 202351Z 19011KT 35/08 A3006 RMK A01 T03520082  RH  019%=      5-min Rain = 0
KEN1 202352Z 18011KT 35/09 A3006 RMK A01 T03510085  RH  020%=      5-min Rain = 0
KEN1 202353Z 18009KT 35/09 A3006 RMK A01 T03510086  RH  020%=      5-min Rain = 0
KEN1 202354Z 18010KT 35/09 A3006 RMK A01 T03500087  RH  020%=      5-min Rain = 0
KEN1 202355Z 18010KT 35/09 A3006 RMK A01 T03500089  RH  020%=      5-min Rain = 0
KEN1 202356Z 18009KT 35/09 A3006 RMK A01 T03490091  RH  021%=      5-min Rain = 0
KEN1 202357Z 18009KT 35/09 A3006 RMK A01 T03490092  RH  021%=      5-min Rain = 0
KEN1 202358Z 18011KT 35/09 A3006 RMK A01 T03490093  RH  021%=      5-min Rain = 0
KEN1 202359Z 18013KT 35/09 A3006 RMK A01 T03490092  RH  021%=      5-min Rain = 0
KEN1 210000Z 18012KT 35/09 A3006 RMK A01 T03490086  RH  020%=      5-min Rain = 0
KEN1 210001Z 19012KT 35/09 A3006 RMK A01 T03500085  RH  020%=      5-min Rain = 0
KEN1 210002Z 18012KT 35/08 A3006 RMK A01 T03500084  RH  020%=      5-min Rain = 0
KEN1 210003Z 19013KT 35/09 A3006 RMK A01 T03500085  RH  020%=      5-min Rain = 0
KEN1 210004Z 20011KT 35/08 A3006 RMK A01 T03500084  RH  020%=      5-min Rain = 0
KEN1 210005Z 20011KT 35/08 A3006 RMK A01 T03500082  RH  019%=      5-min Rain = 0
KEN1 210006Z 20012KT 35/08 A3006 RMK A01 T03500082  RH  019%=      5-min Rain = 0
KEN1 210007Z 20011KT 35/08 A3007 RMK A01 T03500081  RH  019%=      5-min Rain = 0
KEN1 210008Z 20011KT 35/08 A3006 RMK A01 T03500080  RH  019%=      5-min Rain = 0
KEN1 210009Z 20010KT 35/08 A3007 RMK A01 T03500080  RH  019%=      5-min Rain = 0
KEN1 210010Z 20011KT 35/08 A3007 RMK A01 T03500081  RH  019%=      5-min Rain = 0
KEN1 210011Z 20009KT 35/08 A3007 RMK A01 T03490081  RH  019%=      5-min Rain = 0
KEN1 210012Z 20010KT 35/08 A3007 RMK A01 T03500082  RH  019%=      5-min Rain = 0
KEN1 210013Z 20012KT 35/08 A3007 RMK A01 T03490081  RH  019%=      5-min Rain = 0
KEN1 210014Z 20013KT 35/08 A3007 RMK A01 T03490081  RH  019%=      5-min Rain = 0
KEN1 210015Z 19013KT 35/08 A3007 RMK A01 T03500083  RH  020%=      5-min Rain = 0
KEN1 210016Z 20015KT 35/08 A3007 RMK A01 T03490083  RH  019%=      5-min Rain = 0
KEN1 210017Z 20013KT 35/08 A3007 RMK A01 T03500084  RH  020%=      5-min Rain = 0
KEN1 210018Z 20012KT 35/08 A3007 RMK A01 T03490084  RH  020%=      5-min Rain = 0
KEN1 210019Z 19013KT 35/09 A3007 RMK A01 T03490085  RH  020%=      5-min Rain = 0
KEN1 210020Z 20013KT 35/09 A3007 RMK A01 T03490085  RH  020%=      5-min Rain = 0
KEN1 210021Z 20012KT 35/08 A3006 RMK A01 T03490084  RH  020%=      5-min Rain = 0
KEN1 210022Z 20010KT 35/09 A3006 RMK A01 T03490085  RH  020%=      5-min Rain = 0
KEN1 210023Z 20012KT 35/09 A3006 RMK A01 T03490085  RH  020%=      5-min Rain = 0
KEN1 210024Z 20011KT 35/08 A3006 RMK A01 T03480084  RH  020%=      5-min Rain = 0
KEN1 210025Z 20012KT 35/09 A3006 RMK A01 T03480085  RH  020%=      5-min Rain = 0
KEN1 210026Z 20012KT 35/08 A3006 RMK A01 T03490084  RH  020%=      5-min Rain = 0
KEN1 210027Z 20010KT 35/08 A3006 RMK A01 T03480084  RH  020%=      5-min Rain = 0
KEN1 210028Z 20012KT 35/09 A3006 RMK A01 T03480085  RH  020%=      5-min Rain = 0
KEN1 210029Z 19014KT 35/08 A3006 RMK A01 T03480084  RH  020%=      5-min Rain = 0
KEN1 210030Z 19016KT 35/09 A3006 RMK A01 T03470086  RH  020%=      5-min Rain = 0
KEN1 210031Z 20014KT 35/09 A3006 RMK A01 T03480089  RH  021%=      5-min Rain = 0
KEN1 210032Z 19012KT 35/09 A3006 RMK A01 T03470091  RH  021%=      5-min Rain = 0
KEN1 210033Z 19013KT 35/09 A3006 RMK A01 T03470092  RH  021%=      5-min Rain = 0
KEN1 210034Z 19014KT 35/09 A3006 RMK A01 T03470092  RH  021%=      5-min Rain = 0
KEN1 210035Z 19014KT 35/09 A3006 RMK A01 T03470094  RH  021%=      5-min Rain = 0
KEN1 210036Z 19013KT 35/09 A3006 RMK A01 T03460094  RH  021%=      5-min Rain = 0
KEN1 210037Z 19011KT 35/10 A3006 RMK A01 T03460095  RH  022%=      5-min Rain = 0
KEN1 210038Z 18014G19KT 35/10 A3006 RMK A01 T03460096  RH  022%=      5-min Rain = 0
KEN1 210039Z 18016KT 35/10 A3006 RMK A01 T03450098  RH  022%=      5-min Rain = 0
KEN1 210040Z 18015KT 35/10 A3006 RMK A01 T03450102  RH  023%=      5-min Rain = 0
KEN1 210041Z 18015KT 35/11 A3006 RMK A01 T03450106  RH  023%=      5-min Rain = 0
KEN1 210042Z 18013KT 34/11 A3006 RMK A01 T03440108  RH  024%=      5-min Rain = 0
KEN1 210043Z 18012KT 34/11 A3006 RMK A01 T03430110  RH  024%=      5-min Rain = 0
KEN1 210044Z 18013KT 34/11 A3006 RMK A01 T03420114  RH  025%=      5-min Rain = 0
KEN1 210045Z 18014KT 34/12 A3006 RMK A01 T03410116  RH  025%=      5-min Rain = 0
KEN1 210046Z 17014KT 34/12 A3006 RMK A01 T03410117  RH  026%=      5-min Rain = 0
KEN1 210047Z 17014KT 34/12 A3006 RMK A01 T03400119  RH  026%=      5-min Rain = 0
KEN1 210048Z 17015KT 34/12 A3006 RMK A01 T03400118  RH  026%=      5-min Rain = 0
KEN1 210049Z 17017KT 34/12 A3006 RMK A01 T03390118  RH  026%=      5-min Rain = 0
KEN1 210050Z 17015KT 34/12 A3007 RMK A01 T03390118  RH  026%=      5-min Rain = 0
KEN1 210051Z 17017KT 34/12 A3007 RMK A01 T03390118  RH  026%=      5-min Rain = 0
KEN1 210052Z 18017KT 34/12 A3007 RMK A01 T03380117  RH  026%=      5-min Rain = 0
KEN1 210053Z 18015KT 34/12 A3007 RMK A01 T03380118  RH  026%=      5-min Rain = 0
KEN1 210054Z 18016KT 34/12 A3007 RMK A01 T03380118  RH  026%=      5-min Rain = 0
KEN1 210055Z 18014KT 34/12 A3007 RMK A01 T03370118  RH  026%=      5-min Rain = 0
KEN1 210056Z 18013KT 34/12 A3007 RMK A01 T03370118  RH  026%=      5-min Rain = 0
KEN1 210057Z 19012KT 34/12 A3008 RMK A01 T03360119  RH  027%=      5-min Rain = 0
KEN1 210058Z 21012KT 34/12 A3008 RMK A01 T03360119  RH  027%=      5-min Rain = 0
KEN1 210059Z 23013KT 34/12 A3009 RMK A01 T03350119  RH  027%=      5-min Rain = 0
KEN1 210100Z 24016KT 34/12 A3009 RMK A01 T03350115  RH  026%=      5-min Rain = 0
KEN1 210101Z 25014KT 33/10 A301 RMK A01 T03320103  RH  025%=      5-min Rain = 0
KEN1 210102Z 27015KT 33/10 A301 RMK A01 T03280098  RH  024%=      5-min Rain = 0
KEN1 210103Z 26013KT 33/10 A301 RMK A01 T03250096  RH  024%=      5-min Rain = 0
KEN1 210104Z 26013KT 32/10 A301 RMK A01 T03230096  RH  025%=      5-min Rain = 0
KEN1 210105Z 27014KT 32/10 A301 RMK A01 T03210096  RH  025%=      5-min Rain = 0
KEN1 210106Z 27013KT 32/10 A301 RMK A01 T03190096  RH  025%=      5-min Rain = 0
KEN1 210107Z 28012KT 32/10 A301 RMK A01 T03180097  RH  025%=      5-min Rain = 0
KEN1 210108Z 29013KT 32/10 A3009 RMK A01 T03170097  RH  026%=      5-min Rain = 0
KEN1 210109Z 29016KT 32/10 A3009 RMK A01 T03160097  RH  026%=      5-min Rain = 0
KEN1 210110Z 28017KT 32/10 A3009 RMK A01 T03150096  RH  026%=      5-min Rain = 0
KEN1 210111Z 28019KT 32/10 A3009 RMK A01 T03150096  RH  026%=      5-min Rain = 0
KEN1 210112Z 29018KT 32/10 A301 RMK A01 T03150095  RH  026%=      5-min Rain = 0
KEN1 210113Z 29017KT 32/10 A301 RMK A01 T03150095  RH  026%=      5-min Rain = 0
KEN1 210114Z 29020KT 32/10 A301 RMK A01 T03150096  RH  026%=      5-min Rain = 0
KEN1 210115Z 29019KT 31/10 A301 RMK A01 T03140096  RH  026%=      5-min Rain = 0
KEN1 210116Z 29018KT 31/10 A301 RMK A01 T03140096  RH  026%=      5-min Rain = 0
KEN1 210117Z 29020KT 31/10 A301 RMK A01 T03130095  RH  026%=      5-min Rain = 0
KEN1 210118Z 28017KT 31/10 A3011 RMK A01 T03140095  RH  026%=      5-min Rain = 0
KEN1 210119Z 29017KT 31/10 A3011 RMK A01 T03130096  RH  026%=      5-min Rain = 0
KEN1 210120Z 29014KT 31/10 A3011 RMK A01 T03130097  RH  026%=      5-min Rain = 0
KEN1 210121Z 28012KT 31/10 A3011 RMK A01 T03130098  RH  026%=      5-min Rain = 0
KEN1 210122Z 26016KT 31/10 A3012 RMK A01 T03120098  RH  027%=      5-min Rain = 0
KEN1 210123Z 26015KT 31/10 A3012 RMK A01 T03120098  RH  027%=      5-min Rain = 0
KEN1 210124Z 26014KT 31/10 A3012 RMK A01 T03110098  RH  027%=      5-min Rain = 0
KEN1 210125Z 26014KT 31/10 A3012 RMK A01 T03110099  RH  027%=      5-min Rain = 0
KEN1 210126Z 26012KT 31/10 A3012 RMK A01 T03110099  RH  027%=      5-min Rain = 0
KEN1 210127Z 26011KT 31/10 A3012 RMK A01 T03100099  RH  027%=      5-min Rain = 0
KEN1 210128Z 26011KT 31/10 A3012 RMK A01 T03100099  RH  027%=      5-min Rain = 0
KEN1 210129Z 28010KT 31/10 A3012 RMK A01 T03090098  RH  027%=      5-min Rain = 0
KEN1 210130Z 27011KT 31/10 A3012 RMK A01 T03080098  RH  027%=      5-min Rain = 0
KEN1 210131Z 28009KT 31/10 A3012 RMK A01 T03070098  RH  027%=      5-min Rain = 0
KEN1 210132Z 27011KT 31/10 A3012 RMK A01 T03070099  RH  028%=      5-min Rain = 0
KEN1 210133Z 28012KT 31/10 A3012 RMK A01 T03060099  RH  028%=      5-min Rain = 0
KEN1 210134Z 28010KT 31/10 A3012 RMK A01 T03050098  RH  028%=      5-min Rain = 0
KEN1 210135Z 30011KT 31/10 A3013 RMK A01 T03050099  RH  028%=      5-min Rain = 0
KEN1 210136Z 30012KT 31/10 A3013 RMK A01 T03050099  RH  028%=      5-min Rain = 0
KEN1 210137Z 31011KT 30/10 A3013 RMK A01 T03040097  RH  028%=      5-min Rain = 0
KEN1 210138Z 32009KT 30/10 A3013 RMK A01 T03040098  RH  028%=      5-min Rain = 0
KEN1 210139Z 32009KT 30/10 A3013 RMK A01 T03030099  RH  028%=      5-min Rain = 0
KEN1 210140Z 34009KT 30/10 A3013 RMK A01 T03030098  RH  028%=      5-min Rain = 0
KEN1 210141Z 33010KT 30/10 A3013 RMK A01 T03020098  RH  028%=      5-min Rain = 0
KEN1 210142Z 33008KT 30/10 A3013 RMK A01 T03020099  RH  028%=      5-min Rain = 0
KEN1 210143Z 33009KT 30/10 A3013 RMK A01 T03020101  RH  029%=      5-min Rain = 0
KEN1 210144Z 32008KT 30/10 A3013 RMK A01 T03010099  RH  029%=      5-min Rain = 0
KEN1 210145Z 32008KT 30/10 A3013 RMK A01 T03020100  RH  029%=      5-min Rain = 0
KEN1 210146Z 32007KT 30/10 A3013 RMK A01 T03010100  RH  029%=      5-min Rain = 0
KEN1 210147Z 32009KT 30/10 A3013 RMK A01 T03010100  RH  029%=      5-min Rain = 0
KEN1 210148Z 31009KT 30/10 A3013 RMK A01 T03000101  RH  029%=      5-min Rain = 0
KEN1 210149Z 33006KT 30/10 A3013 RMK A01 T03000102  RH  029%=      5-min Rain = 0
KEN1 210150Z 33007KT 30/10 A3013 RMK A01 T02990103  RH  030%=      5-min Rain = 0
KEN1 210151Z 33007KT 30/10 A3013 RMK A01 T02980104  RH  030%=      5-min Rain = 0
KEN1 210152Z 34008KT 30/10 A3013 RMK A01 T02970104  RH  030%=      5-min Rain = 0
KEN1 210153Z 34007KT 30/10 A3013 RMK A01 T02970103  RH  030%=      5-min Rain = 0
KEN1 210154Z 34008KT 30/10 A3013 RMK A01 T02970103  RH  030%=      5-min Rain = 0
KEN1 210155Z 34008KT 30/10 A3013 RMK A01 T02970104  RH  030%=      5-min Rain = 0
KEN1 210156Z 34009KT 30/10 A3013 RMK A01 T02960104  RH  030%=      5-min Rain = 0
KEN1 210157Z 34009KT 30/11 A3013 RMK A01 T02960105  RH  031%=      5-min Rain = 0
KEN1 210158Z 34009KT 30/11 A3013 RMK A01 T02950105  RH  031%=      5-min Rain = 0
KEN1 210159Z 33009KT 30/11 A3013 RMK A01 T02950107  RH  031%=      5-min Rain = 0
KEN1 210200Z 34008KT 30/11 A3013 RMK A01 T02950108  RH  032%=      5-min Rain = 0
KEN1 210201Z 35008KT 29/11 A3013 RMK A01 T02940109  RH  032%=      5-min Rain = 0
KEN1 210202Z 34008KT 29/11 A3013 RMK A01 T02930108  RH  032%=      5-min Rain = 0
KEN1 210203Z 34009KT 29/11 A3013 RMK A01 T02930109  RH  032%=      5-min Rain = 0
KEN1 210204Z 35007KT 29/11 A3013 RMK A01 T02930110  RH  032%=      5-min Rain = 0
KEN1 210205Z 35007KT 29/11 A3013 RMK A01 T02920110  RH  032%=      5-min Rain = 0
KEN1 210206Z 34007KT 29/11 A3013 RMK A01 T02920112  RH  033%=      5-min Rain = 0
KEN1 210207Z 34007KT 29/11 A3013 RMK A01 T02910112  RH  033%=      5-min Rain = 0
KEN1 210208Z 35006KT 29/11 A3013 RMK A01 T02900114  RH  033%=      5-min Rain = 0
KEN1 210209Z 35007KT 29/11 A3013 RMK A01 T02900114  RH  034%=      5-min Rain = 0
KEN1 210210Z 35006KT 29/11 A3013 RMK A01 T02890114  RH  034%=      5-min Rain = 0
KEN1 210211Z 35006KT 29/12 A3013 RMK A01 T02890115  RH  034%=      5-min Rain = 0
KEN1 210212Z 35007KT 29/11 A3013 RMK A01 T02890114  RH  034%=      5-min Rain = 0
KEN1 210213Z 34007KT 29/11 A3013 RMK A01 T02890112  RH  033%=      5-min Rain = 0
KEN1 210214Z 34008KT 29/11 A3013 RMK A01 T02900113  RH  033%=      5-min Rain = 0
KEN1 210215Z 35008KT 29/11 A3013 RMK A01 T02900114  RH  034%=      5-min Rain = 0
KEN1 210216Z 35009KT 29/11 A3013 RMK A01 T02900114  RH  034%=      5-min Rain = 0
KEN1 210217Z 34008KT 29/11 A3013 RMK A01 T02900110  RH  033%=      5-min Rain = 0
KEN1 210218Z 33006KT 29/11 A3013 RMK A01 T02910108  RH  032%=      5-min Rain = 0
KEN1 210219Z 34006KT 29/11 A3013 RMK A01 T02920111  RH  032%=      5-min Rain = 0
KEN1 210220Z 33007KT 29/11 A3013 RMK A01 T02920113  RH  033%=      5-min Rain = 0
KEN1 210221Z 33006KT 29/11 A3013 RMK A01 T02910114  RH  033%=      5-min Rain = 0
KEN1 210222Z 33006KT 29/12 A3013 RMK A01 T02910115  RH  034%=      5-min Rain = 0
KEN1 210223Z 32006KT 29/12 A3013 RMK A01 T02900115  RH  034%=      5-min Rain = 0
KEN1 210224Z 32006KT 29/12 A3013 RMK A01 T02890116  RH  034%=      5-min Rain = 0
KEN1 210225Z 32006KT 29/12 A3013 RMK A01 T02880117  RH  035%=      5-min Rain = 0
KEN1 210226Z 32006KT 29/12 A3013 RMK A01 T02870119  RH  035%=      5-min Rain = 0
KEN1 210227Z 32007KT 29/12 A3013 RMK A01 T02860121  RH  036%=      5-min Rain = 0
KEN1 210228Z 32008KT 29/12 A3013 RMK A01 T02850120  RH  036%=      5-min Rain = 0
KEN1 210229Z 33007KT 29/12 A3013 RMK A01 T02850121  RH  036%=      5-min Rain = 0
KEN1 210230Z 32007KT 29/12 A3013 RMK A01 T02850124  RH  037%=      5-min Rain = 0
KEN1 210231Z 32006KT 28/12 A3013 RMK A01 T02830124  RH  037%=      5-min Rain = 0
KEN1 210232Z 31006KT 28/12 A3013 RMK A01 T02830124  RH  038%=      5-min Rain = 0
KEN1 210233Z 29005KT 28/12 A3014 RMK A01 T02820124  RH  038%=      5-min Rain = 0
KEN1 210234Z 27004KT 28/13 A3014 RMK A01 T02820126  RH  038%=      5-min Rain = 0
KEN1 210235Z 27005KT 28/13 A3014 RMK A01 T02810129  RH  039%=      5-min Rain = 0
KEN1 210236Z 27005KT 28/13 A3014 RMK A01 T02800130  RH  040%=      5-min Rain = 0
KEN1 210237Z 27007KT 28/13 A3014 RMK A01 T02790130  RH  040%=      5-min Rain = 0
KEN1 210238Z 27009KT 28/13 A3014 RMK A01 T02780128  RH  039%=      5-min Rain = 0
KEN1 210239Z 28008KT 28/12 A3014 RMK A01 T02780124  RH  038%=      5-min Rain = 0
KEN1 210240Z 27008KT 28/12 A3014 RMK A01 T02800122  RH  038%=      5-min Rain = 0
KEN1 210241Z 28008KT 28/12 A3014 RMK A01 T02800123  RH  038%=      5-min Rain = 0
KEN1 210242Z 28007KT 28/12 A3014 RMK A01 T02800124  RH  038%=      5-min Rain = 0
KEN1 210243Z 28009KT 28/12 A3014 RMK A01 T02800124  RH  038%=      5-min Rain = 0
KEN1 210244Z 28009KT 28/12 A3014 RMK A01 T02800122  RH  038%=      5-min Rain = 0
KEN1 210245Z 28008KT 28/12 A3014 RMK A01 T02800122  RH  038%=      5-min Rain = 0
KEN1 210246Z 29008KT 28/12 A3014 RMK A01 T02800122  RH  037%=      5-min Rain = 0
KEN1 210247Z 29008KT 28/12 A3014 RMK A01 T02800122  RH  038%=      5-min Rain = 0
KEN1 210248Z 29007KT 28/12 A3014 RMK A01 T02800123  RH  038%=      5-min Rain = 0
KEN1 210249Z 30007KT 28/12 A3014 RMK A01 T02800122  RH  038%=      5-min Rain = 0
KEN1 210250Z 30008KT 28/12 A3014 RMK A01 T02800122  RH  038%=      5-min Rain = 0
KEN1 210251Z 29009KT 28/12 A3014 RMK A01 T02800120  RH  037%=      5-min Rain = 0
KEN1 210252Z 29009KT 28/12 A3014 RMK A01 T02800118  RH  037%=      5-min Rain = 0
KEN1 210253Z 29009KT 28/12 A3014 RMK A01 T02800117  RH  036%=      5-min Rain = 0
KEN1 210254Z 28009KT 28/11 A3014 RMK A01 T02810114  RH  035%=      5-min Rain = 0
KEN1 210255Z 28008KT 28/11 A3014 RMK A01 T02820112  RH  035%=      5-min Rain = 0
KEN1 210256Z 29007KT 28/11 A3014 RMK A01 T02830110  RH  034%=      5-min Rain = 0
KEN1 210257Z 30006KT 28/11 A3014 RMK A01 T02840111  RH  034%=      5-min Rain = 0
KEN1 210258Z 30006KT 28/11 A3014 RMK A01 T02840112  RH  034%=      5-min Rain = 0
KEN1 210259Z 30005KT 28/11 A3014 RMK A01 T02840112  RH  034%=      5-min Rain = 0
KEN1 210300Z 30008KT 28/11 A3014 RMK A01 T02840111  RH  034%=      5-min Rain = 0
KEN1 210301Z 28008KT 29/11 A3014 RMK A01 T02850110  RH  034%=      5-min Rain = 0
KEN1 210302Z 29008KT 29/11 A3014 RMK A01 T02860109  RH  033%=      5-min Rain = 0
KEN1 210303Z 29009KT 29/11 A3014 RMK A01 T02870109  RH  033%=      5-min Rain = 0
KEN1 210304Z 30008KT 29/11 A3014 RMK A01 T02880107  RH  032%=      5-min Rain = 0
KEN1 210305Z 30009KT 29/11 A3014 RMK A01 T02890107  RH  032%=      5-min Rain = 0
KEN1 210306Z 29010KT 29/11 A3014 RMK A01 T02890108  RH  033%=      5-min Rain = 0
KEN1 210307Z 29008KT 29/11 A3014 RMK A01 T02880109  RH  033%=      5-min Rain = 0
KEN1 210308Z 29008KT 29/11 A3014 RMK A01 T02880109  RH  033%=      5-min Rain = 0
KEN1 210309Z 28008KT 29/11 A3014 RMK A01 T02870109  RH  033%=      5-min Rain = 0
KEN1 210310Z 29009KT 29/11 A3014 RMK A01 T02860109  RH  033%=      5-min Rain = 0
KEN1 210311Z 29008KT 29/11 A3014 RMK A01 T02850110  RH  034%=      5-min Rain = 0
KEN1 210312Z 28008KT 29/11 A3014 RMK A01 T02850110  RH  034%=      5-min Rain = 0
KEN1 210313Z 29008KT 28/11 A3014 RMK A01 T02840110  RH  034%=      5-min Rain = 0
KEN1 210314Z 28005KT 28/11 A3014 RMK A01 T02830111  RH  034%=      5-min Rain = 0
KEN1 210315Z 29006KT 28/11 A3014 RMK A01 T02820112  RH  035%=      5-min Rain = 0
KEN1 210316Z 29006KT 28/11 A3013 RMK A01 T02820112  RH  035%=      5-min Rain = 0
KEN1 210317Z 28008KT 28/11 A3013 RMK A01 T02810110  RH  034%=      5-min Rain = 0
KEN1 210318Z 27008KT 28/11 A3013 RMK A01 T02830109  RH  034%=      5-min Rain = 0
KEN1 210319Z 28007KT 28/11 A3013 RMK A01 T02840109  RH  034%=      5-min Rain = 0
KEN1 210320Z 30007KT 29/11 A3013 RMK A01 T02850109  RH  034%=      5-min Rain = 0
KEN1 210321Z 29005KT 28/11 A3013 RMK A01 T02840109  RH  034%=      5-min Rain = 0
KEN1 210322Z 29006KT 29/11 A3013 RMK A01 T02850109  RH  034%=      5-min Rain = 0
KEN1 210323Z 29004KT 29/11 A3013 RMK A01 T02850108  RH  033%=      5-min Rain = 0
KEN1 210324Z 24003KT 29/11 A3013 RMK A01 T02850108  RH  033%=      5-min Rain = 0
KEN1 210325Z 28003KT 29/11 A3013 RMK A01 T02850108  RH  033%=      5-min Rain = 0
KEN1 210326Z 29005KT 29/11 A3013 RMK A01 T02860109  RH  033%=      5-min Rain = 0
KEN1 210327Z 28006KT 29/11 A3013 RMK A01 T02860108  RH  033%=      5-min Rain = 0
KEN1 210328Z 28004KT 29/11 A3012 RMK A01 T02850109  RH  033%=      5-min Rain = 0
KEN1 210329Z 27007KT 29/11 A3013 RMK A01 T02860109  RH  033%=      5-min Rain = 0
KEN1 210330Z 25005KT 29/11 A3012 RMK A01 T02860106  RH  033%=      5-min Rain = 0
KEN1 210331Z 25005KT 29/11 A3012 RMK A01 T02880107  RH  032%=      5-min Rain = 0
KEN1 210332Z 25004KT 29/11 A3012 RMK A01 T02880108  RH  033%=      5-min Rain = 0
KEN1 210333Z 23003KT 29/11 A3012 RMK A01 T02880108  RH  033%=      5-min Rain = 0
KEN1 210334Z 20005KT 29/11 A3012 RMK A01 T02880109  RH  033%=      5-min Rain = 0
KEN1 210335Z 20005KT 29/11 A3012 RMK A01 T02860111  RH  034%=      5-min Rain = 0
KEN1 210336Z 18005KT 28/11 A3013 RMK A01 T02840112  RH  034%=      5-min Rain = 0
KEN1 210337Z 18006KT 28/11 A3013 RMK A01 T02810114  RH  035%=      5-min Rain = 0
KEN1 210338Z 18006KT 28/11 A3013 RMK A01 T02790114  RH  036%=      5-min Rain = 0
KEN1 210339Z 18006KT 28/11 A3013 RMK A01 T02770114  RH  036%=      5-min Rain = 0
KEN1 210340Z 17006KT 28/11 A3013 RMK A01 T02760114  RH  036%=      5-min Rain = 0
KEN1 210341Z 16005KT 28/11 A3013 RMK A01 T02750114  RH  037%=      5-min Rain = 0
KEN1 210342Z 16005KT 28/11 A3013 RMK A01 T02750114  RH  037%=      5-min Rain = 0
KEN1 210343Z 16005KT 28/11 A3013 RMK A01 T02750114  RH  037%=      5-min Rain = 0
KEN1 210344Z 17005KT 27/11 A3012 RMK A01 T02740113  RH  037%=      5-min Rain = 0
KEN1 210345Z 16005KT 27/11 A3012 RMK A01 T02740113  RH  037%=      5-min Rain = 0
KEN1 210346Z 16005KT 27/11 A3012 RMK A01 T02740113  RH  037%=      5-min Rain = 0
KEN1 210347Z 16006KT 27/11 A3012 RMK A01 T02740113  RH  037%=      5-min Rain = 0
KEN1 210348Z 16006KT 27/11 A3012 RMK A01 T02740114  RH  037%=      5-min Rain = 0
KEN1 210349Z 16006KT 27/11 A3012 RMK A01 T02730113  RH  037%=      5-min Rain = 0
KEN1 210350Z 16006KT 27/11 A3012 RMK A01 T02730113  RH  037%=      5-min Rain = 0
KEN1 210351Z 16006KT 27/11 A3012 RMK A01 T02730114  RH  037%=      5-min Rain = 0
KEN1 210352Z 15007KT 27/11 A3012 RMK A01 T02720114  RH  037%=      5-min Rain = 0
KEN1 210353Z 15007KT 27/11 A3012 RMK A01 T02710113  RH  037%=      5-min Rain = 0
KEN1 210354Z 14008KT 27/11 A3012 RMK A01 T02710113  RH  037%=      5-min Rain = 0
KEN1 210355Z 14008KT 27/11 A3012 RMK A01 T02700113  RH  038%=      5-min Rain = 0
KEN1 210356Z 14009KT 27/11 A3012 RMK A01 T02700113  RH  038%=      5-min Rain = 0
KEN1 210357Z 13009KT 27/11 A3012 RMK A01 T02700113  RH  038%=      5-min Rain = 0
KEN1 210358Z 13010KT 27/11 A3012 RMK A01 T02690113  RH  038%=      5-min Rain = 0
KEN1 210359Z 13009KT 27/11 A3012 RMK A01 T02690113  RH  038%=      5-min Rain = 0
KEN1 210400Z 13010KT 27/11 A3012 RMK A01 T02690113  RH  038%=      5-min Rain = 0
KEN1 210401Z 13009KT 27/11 A3012 RMK A01 T02690114  RH  038%=      5-min Rain = 0
KEN1 210402Z 13009KT 27/11 A3012 RMK A01 T02680114  RH  038%=      5-min Rain = 0
KEN1 210403Z 13010KT 27/11 A3012 RMK A01 T02670114  RH  038%=      5-min Rain = 0
KEN1 210404Z 13010KT 27/11 A3012 RMK A01 T02660113  RH  038%=      5-min Rain = 0
KEN1 210405Z 13009KT 27/11 A3012 RMK A01 T02650113  RH  039%=      5-min Rain = 0
KEN1 210406Z 13009KT 27/11 A3012 RMK A01 T02650113  RH  039%=      5-min Rain = 0
KEN1 210407Z 13010KT 27/11 A3012 RMK A01 T02650113  RH  039%=      5-min Rain = 0
KEN1 210408Z 13010KT 26/11 A3012 RMK A01 T02640112  RH  039%=      5-min Rain = 0
KEN1 210409Z 13010KT 27/11 A3012 RMK A01 T02650112  RH  039%=      5-min Rain = 0
KEN1 210410Z 13010KT 26/11 A3012 RMK A01 T02640112  RH  039%=      5-min Rain = 0
KEN1 210411Z 13010KT 26/11 A3012 RMK A01 T02640112  RH  039%=      5-min Rain = 0
KEN1 210412Z 13010KT 26/11 A3012 RMK A01 T02630113  RH  039%=      5-min Rain = 0
KEN1 210413Z 13009KT 26/11 A3012 RMK A01 T02620113  RH  039%=      5-min Rain = 0
KEN1 210414Z 13009KT 26/11 A3012 RMK A01 T02600114  RH  040%=      5-min Rain = 0
KEN1 210415Z 13009KT 26/12 A3012 RMK A01 T02590115  RH  041%=      5-min Rain = 0
KEN1 210416Z 13009KT 26/12 A3012 RMK A01 T02570116  RH  041%=      5-min Rain = 0
KEN1 210417Z 13009KT 26/12 A3012 RMK A01 T02570115  RH  041%=      5-min Rain = 0
KEN1 210418Z 13009KT 26/12 A3012 RMK A01 T02570115  RH  041%=      5-min Rain = 0
KEN1 210419Z 13009KT 26/12 A3012 RMK A01 T02560116  RH  041%=      5-min Rain = 0
KEN1 210420Z 13010KT 26/12 A3012 RMK A01 T02550116  RH  042%=      5-min Rain = 0
KEN1 210421Z 14009KT 26/12 A3012 RMK A01 T02550117  RH  042%=      5-min Rain = 0
KEN1 210422Z 14008KT 25/12 A3012 RMK A01 T02540117  RH  042%=      5-min Rain = 0
KEN1 210423Z 13008KT 25/12 A3012 RMK A01 T02540117  RH  043%=      5-min Rain = 0
KEN1 210424Z 13009KT 25/12 A3012 RMK A01 T02530118  RH  043%=      5-min Rain = 0
KEN1 210425Z 13009KT 25/12 A3012 RMK A01 T02510118  RH  043%=      5-min Rain = 0
KEN1 210426Z 13009KT 25/12 A3012 RMK A01 T02500118  RH  044%=      5-min Rain = 0
KEN1 210427Z 13009KT 25/12 A3012 RMK A01 T02500118  RH  044%=      5-min Rain = 0
KEN1 210428Z 13009KT 25/12 A3012 RMK A01 T02500118  RH  044%=      5-min Rain = 0
KEN1 210429Z 13009KT 25/12 A3012 RMK A01 T02500118  RH  044%=      5-min Rain = 0
KEN1 210430Z 14010KT 25/12 A3012 RMK A01 T02490118  RH  044%=      5-min Rain = 0
KEN1 210431Z 14009KT 25/12 A3012 RMK A01 T02490117  RH  044%=      5-min Rain = 0
KEN1 210432Z 14009KT 25/12 A3012 RMK A01 T02490117  RH  043%=      5-min Rain = 0
KEN1 210433Z 14009KT 25/12 A3012 RMK A01 T02490116  RH  043%=      5-min Rain = 0
KEN1 210434Z 14010KT 25/12 A3012 RMK A01 T02490116  RH  043%=      5-min Rain = 0
KEN1 210435Z 14010KT 25/12 A3012 RMK A01 T02490115  RH  043%=      5-min Rain = 0
KEN1 210436Z 13009KT 25/12 A3012 RMK A01 T02490115  RH  043%=      5-min Rain = 0
KEN1 210437Z 13009KT 25/12 A3012 RMK A01 T02490115  RH  043%=      5-min Rain = 0
KEN1 210438Z 13009KT 25/11 A3012 RMK A01 T02480114  RH  043%=      5-min Rain = 0
KEN1 210439Z 14009KT 25/11 A3012 RMK A01 T02480114  RH  043%=      5-min Rain = 0
KEN1 210440Z 14009KT 25/11 A3012 RMK A01 T02480113  RH  043%=      5-min Rain = 0
KEN1 210441Z 14009KT 25/11 A3012 RMK A01 T02480113  RH  043%=      5-min Rain = 0
KEN1 210442Z 14009KT 25/11 A3012 RMK A01 T02490113  RH  043%=      5-min Rain = 0
KEN1 210443Z 14009KT 25/11 A3011 RMK A01 T02490113  RH  043%=      5-min Rain = 0
KEN1 210444Z 14009KT 25/11 A3011 RMK A01 T02480113  RH  043%=      5-min Rain = 0
KEN1 210445Z 14009KT 25/11 A3011 RMK A01 T02480113  RH  043%=      5-min Rain = 0
KEN1 210446Z 14010KT 25/11 A3011 RMK A01 T02480113  RH  043%=      5-min Rain = 0
KEN1 210447Z 14011KT 25/11 A3011 RMK A01 T02480112  RH  042%=      5-min Rain = 0
KEN1 210448Z 14010KT 25/11 A3011 RMK A01 T02490112  RH  042%=      5-min Rain = 0
KEN1 210449Z 14009KT 25/11 A3011 RMK A01 T02490112  RH  042%=      5-min Rain = 0
KEN1 210450Z 14009KT 25/11 A3011 RMK A01 T02490111  RH  042%=      5-min Rain = 0
KEN1 210451Z 15009KT 25/11 A3011 RMK A01 T02490112  RH  042%=      5-min Rain = 0
KEN1 210452Z 14009KT 25/11 A3011 RMK A01 T02480112  RH  042%=      5-min Rain = 0
KEN1 210453Z 15010KT 25/11 A3011 RMK A01 T02480112  RH  042%=      5-min Rain = 0
KEN1 210454Z 15011KT 25/11 A3011 RMK A01 T02480112  RH  042%=      5-min Rain = 0
KEN1 210455Z 15011KT 25/11 A3011 RMK A01 T02480112  RH  042%=      5-min Rain = 0
KEN1 210456Z 15010KT 25/11 A3011 RMK A01 T02470111  RH  042%=      5-min Rain = 0
KEN1 210457Z 14010KT 25/11 A3011 RMK A01 T02480111  RH  042%=      5-min Rain = 0
KEN1 210458Z 14010KT 25/11 A3011 RMK A01 T02470111  RH  042%=      5-min Rain = 0
KEN1 210459Z 15009KT 25/11 A3011 RMK A01 T02470111  RH  042%=      5-min Rain = 0

Page generated in 0.126 seconds.